Observation data for Guadalupe Mtns Park on 02/16/2017      Previous  Date       Current Mesonet Observations  Soil Data  Daily Summary Page  Observations in Plain Language
KGU1 160600Z 26005KT 03/M07 A3017 RMK A01 T00261068  RH  051%=      5-min Rain = 0
KGU1 160601Z 29003KT 03/M07 A3017 RMK A01 T00251067  RH  051%=      5-min Rain = 0
KGU1 160602Z 32004KT 02/M07 A3017 RMK A01 T00221066  RH  053%=      5-min Rain = 0
KGU1 160603Z 34004KT 02/M07 A3017 RMK A01 T00191065  RH  054%=      5-min Rain = 0
KGU1 160604Z 35003KT 02/M07 A3017 RMK A01 T00171065  RH  055%=      5-min Rain = 0
KGU1 160605Z 35003KT 02/M07 A3017 RMK A01 T00161066  RH  055%=      5-min Rain = 0
KGU1 160606Z 00003KT 02/M07 A3017 RMK A01 T00181067  RH  054%=      5-min Rain = 0
KGU1 160607Z 02003KT 02/M07 A3017 RMK A01 T00191067  RH  053%=      5-min Rain = 0
KGU1 160608Z 35003KT 02/M07 A3017 RMK A01 T00201067  RH  053%=      5-min Rain = 0
KGU1 160609Z 33003KT 02/M07 A3017 RMK A01 T00191067  RH  054%=      5-min Rain = 0
KGU1 160610Z 02003KT 02/M07 A3017 RMK A01 T00181068  RH  053%=      5-min Rain = 0
KGU1 160611Z 35002KT 02/M07 A3017 RMK A01 T00191068  RH  053%=      5-min Rain = 0
KGU1 160612Z 27003KT 02/M07 A3017 RMK A01 T00201068  RH  053%=      5-min Rain = 0
KGU1 160613Z 31001KT 02/M07 A3017 RMK A01 T00211069  RH  052%=      5-min Rain = 0
KGU1 160614Z 33000KT 02/M07 A3017 RMK A01 T00241071  RH  050%=      5-min Rain = 0
KGU1 160615Z 34000KT 03/M07 A3017 RMK A01 T00261072  RH  049%=      5-min Rain = 0
KGU1 160616Z 34001KT 03/M07 A3017 RMK A01 T00271073  RH  048%=      5-min Rain = 0
KGU1 160617Z 35001KT 03/M07 A3017 RMK A01 T00281073  RH  048%=      5-min Rain = 0
KGU1 160618Z 22001KT 03/M07 A3017 RMK A01 T00291071  RH  048%=      5-min Rain = 0
KGU1 160619Z 22001KT 03/M07 A3017 RMK A01 T00291071  RH  048%=      5-min Rain = 0
KGU1 160620Z 23002KT 03/M07 A3017 RMK A01 T00281069  RH  049%=      5-min Rain = 0
KGU1 160621Z 22003KT 03/M07 A3017 RMK A01 T00271069  RH  050%=      5-min Rain = 0
KGU1 160622Z 20003KT 03/M07 A3017 RMK A01 T00271069  RH  050%=      5-min Rain = 0
KGU1 160623Z 20002KT 03/M07 A3017 RMK A01 T00261070  RH  050%=      5-min Rain = 0
KGU1 160624Z 19001KT 03/M07 A3017 RMK A01 T00281073  RH  048%=      5-min Rain = 0
KGU1 160625Z 19002KT 03/M07 A3017 RMK A01 T00291072  RH  048%=      5-min Rain = 0
KGU1 160626Z 20003KT 03/M07 A3017 RMK A01 T00301071  RH  048%=      5-min Rain = 0
KGU1 160627Z 17003KT 03/M07 A3017 RMK A01 T00311073  RH  047%=      5-min Rain = 0
KGU1 160628Z 18003KT 03/M07 A3017 RMK A01 T00321072  RH  047%=      5-min Rain = 0
KGU1 160629Z 18002KT 03/M07 A3017 RMK A01 T00321070  RH  048%=      5-min Rain = 0
KGU1 160630Z 19002KT 03/M07 A3017 RMK A01 T00311070  RH  048%=      5-min Rain = 0
KGU1 160631Z 16002KT 03/M07 A3017 RMK A01 T00311070  RH  048%=      5-min Rain = 0
KGU1 160632Z 20003KT 03/M07 A3017 RMK A01 T00301068  RH  049%=      5-min Rain = 0
KGU1 160633Z 24004KT 03/M07 A3017 RMK A01 T00281069  RH  049%=      5-min Rain = 0
KGU1 160634Z 25003KT 03/M07 A3017 RMK A01 T00291070  RH  049%=      5-min Rain = 0
KGU1 160635Z 24003KT 03/M07 A3017 RMK A01 T00301071  RH  048%=      5-min Rain = 0
KGU1 160636Z 24003KT 03/M07 A3017 RMK A01 T00301071  RH  048%=      5-min Rain = 0
KGU1 160637Z 26002KT 03/M07 A3017 RMK A01 T00311071  RH  048%=      5-min Rain = 0
KGU1 160638Z 28003KT 03/M07 A3017 RMK A01 T00311071  RH  048%=      5-min Rain = 0
KGU1 160639Z 24004KT 03/M07 A3017 RMK A01 T00311069  RH  048%=      5-min Rain = 0
KGU1 160640Z 24003KT 03/M07 A3017 RMK A01 T00301071  RH  048%=      5-min Rain = 0
KGU1 160641Z 22004KT 03/M07 A3017 RMK A01 T00311071  RH  047%=      5-min Rain = 0
KGU1 160642Z 24006KT 03/M07 A3017 RMK A01 T00321072  RH  047%=      5-min Rain = 0
KGU1 160643Z 26004KT 04/M07 A3017 RMK A01 T00351074  RH  045%=      5-min Rain = 0
KGU1 160644Z 26002KT 04/M07 A3017 RMK A01 T00371074  RH  045%=      5-min Rain = 0
KGU1 160645Z 26003KT 04/M07 A3017 RMK A01 T00381072  RH  045%=      5-min Rain = 0
KGU1 160646Z 27002KT 04/M07 A3017 RMK A01 T00371072  RH  045%=      5-min Rain = 0
KGU1 160647Z 26003KT 04/M07 A3017 RMK A01 T00371073  RH  045%=      5-min Rain = 0
KGU1 160648Z 30007KT 04/M07 A3017 RMK A01 T00361071  RH  046%=      5-min Rain = 0
KGU1 160649Z 32007KT 04/M07 A3017 RMK A01 T00381073  RH  045%=      5-min Rain = 0
KGU1 160650Z 32003KT 04/M07 A3017 RMK A01 T00411072  RH  044%=      5-min Rain = 0
KGU1 160651Z 30005KT 04/M07 A3017 RMK A01 T00401071  RH  045%=      5-min Rain = 0
KGU1 160652Z 34004KT 04/M08 A3017 RMK A01 T00411075  RH  043%=      5-min Rain = 0
KGU1 160653Z 32005KT 04/M08 A3017 RMK A01 T00421075  RH  043%=      5-min Rain = 0
KGU1 160654Z 31008KT 04/M07 A3017 RMK A01 T00431074  RH  043%=      5-min Rain = 0
KGU1 160655Z 34007KT 04/M07 A3017 RMK A01 T00441074  RH  042%=      5-min Rain = 0
KGU1 160656Z 35006KT 05/M08 A3017 RMK A01 T00451076  RH  041%=      5-min Rain = 0
KGU1 160657Z 32009KT 05/M08 A3017 RMK A01 T00471077  RH  041%=      5-min Rain = 0
KGU1 160658Z 32009KT 05/M08 A3017 RMK A01 T00501078  RH  039%=      5-min Rain = 0
KGU1 160659Z 32007KT 05/M08 A3017 RMK A01 T00521079  RH  039%=      5-min Rain = 0
KGU1 160700Z 32005KT 05/M08 A3017 RMK A01 T00521078  RH  039%=      5-min Rain = 0
KGU1 160701Z 34005KT 05/M08 A3016 RMK A01 T00511075  RH  040%=      5-min Rain = 0
KGU1 160702Z 34006KT 05/M08 A3016 RMK A01 T00501075  RH  041%=      5-min Rain = 0
KGU1 160703Z 35004KT 05/M08 A3016 RMK A01 T00481075  RH  041%=      5-min Rain = 0
KGU1 160704Z 34004KT 05/M08 A3016 RMK A01 T00481078  RH  040%=      5-min Rain = 0
KGU1 160705Z 33006KT 05/M08 A3017 RMK A01 T00491079  RH  040%=      5-min Rain = 0
KGU1 160706Z 32004KT 05/M08 A3017 RMK A01 T00491079  RH  039%=      5-min Rain = 0
KGU1 160707Z 30002KT 05/M08 A3017 RMK A01 T00511079  RH  039%=      5-min Rain = 0
KGU1 160708Z 26003KT 05/M08 A3017 RMK A01 T00501076  RH  040%=      5-min Rain = 0
KGU1 160709Z 22004KT 05/M07 A3016 RMK A01 T00471072  RH  042%=      5-min Rain = 0
KGU1 160710Z 21004KT 04/M07 A3016 RMK A01 T00431070  RH  044%=      5-min Rain = 0
KGU1 160711Z 20004KT 04/M07 A3016 RMK A01 T00411069  RH  045%=      5-min Rain = 0
KGU1 160712Z 21002KT 04/M07 A3016 RMK A01 T00391069  RH  046%=      5-min Rain = 0
KGU1 160713Z 23000KT 04/M07 A3016 RMK A01 T00371071  RH  046%=      5-min Rain = 0
KGU1 160714Z 23002KT 04/M07 A3016 RMK A01 T00361071  RH  046%=      5-min Rain = 0
KGU1 160715Z 24002KT 04/M07 A3016 RMK A01 T00361070  RH  046%=      5-min Rain = 0
KGU1 160716Z 25003KT 04/M07 A3016 RMK A01 T00351071  RH  046%=      5-min Rain = 0
KGU1 160717Z 26002KT 04/M07 A3016 RMK A01 T00351072  RH  046%=      5-min Rain = 0
KGU1 160718Z 26003KT 03/M07 A3016 RMK A01 T00341072  RH  046%=      5-min Rain = 0
KGU1 160719Z 25003KT 03/M07 A3016 RMK A01 T00341074  RH  045%=      5-min Rain = 0
KGU1 160720Z 23002KT 03/M07 A3016 RMK A01 T00341074  RH  046%=      5-min Rain = 0
KGU1 160721Z 23004KT 04/M07 A3016 RMK A01 T00351073  RH  046%=      5-min Rain = 0
KGU1 160722Z 25004KT 04/M07 A3016 RMK A01 T00351074  RH  045%=      5-min Rain = 0
KGU1 160723Z 26004KT 04/M07 A3016 RMK A01 T00361073  RH  045%=      5-min Rain = 0
KGU1 160724Z 24004KT 04/M07 A3016 RMK A01 T00361072  RH  046%=      5-min Rain = 0
KGU1 160725Z 22003KT 04/M07 A3016 RMK A01 T00351071  RH  046%=      5-min Rain = 0
KGU1 160726Z 25004KT 03/M07 A3016 RMK A01 T00341070  RH  047%=      5-min Rain = 0
KGU1 160727Z 23004KT 03/M07 A3016 RMK A01 T00331070  RH  047%=      5-min Rain = 0
KGU1 160728Z 25005KT 03/M07 A3016 RMK A01 T00331072  RH  046%=      5-min Rain = 0
KGU1 160729Z 25006KT 03/M08 A3016 RMK A01 T00341075  RH  045%=      5-min Rain = 0
KGU1 160730Z 25006KT 04/M08 A3016 RMK A01 T00361076  RH  044%=      5-min Rain = 0
KGU1 160731Z 24006KT 04/M08 A3016 RMK A01 T00391079  RH  043%=      5-min Rain = 0
KGU1 160732Z 22006KT 04/M08 A3016 RMK A01 T00411078  RH  042%=      5-min Rain = 0
KGU1 160733Z 25006KT 04/M08 A3016 RMK A01 T00421079  RH  041%=      5-min Rain = 0
KGU1 160734Z 24006KT 04/M08 A3016 RMK A01 T00441079  RH  041%=      5-min Rain = 0
KGU1 160735Z 24005KT 05/M08 A3016 RMK A01 T00451081  RH  040%=      5-min Rain = 0
KGU1 160736Z 23005KT 05/M08 A3016 RMK A01 T00461078  RH  041%=      5-min Rain = 0
KGU1 160737Z 23005KT 04/M08 A3016 RMK A01 T00441075  RH  042%=      5-min Rain = 0
KGU1 160738Z 23006KT 04/M08 A3016 RMK A01 T00421076  RH  042%=      5-min Rain = 0
KGU1 160739Z 24005KT 04/M08 A3016 RMK A01 T00421075  RH  043%=      5-min Rain = 0
KGU1 160740Z 23006KT 04/M07 A3016 RMK A01 T00401074  RH  044%=      5-min Rain = 0
KGU1 160741Z 22006KT 04/M07 A3016 RMK A01 T00391072  RH  045%=      5-min Rain = 0
KGU1 160742Z 23004KT 04/M07 A3016 RMK A01 T00381072  RH  045%=      5-min Rain = 0
KGU1 160743Z 22005KT 04/M07 A3016 RMK A01 T00371073  RH  045%=      5-min Rain = 0
KGU1 160744Z 22005KT 04/M07 A3016 RMK A01 T00361073  RH  045%=      5-min Rain = 0
KGU1 160745Z 24007KT 04/M08 A3016 RMK A01 T00361076  RH  044%=      5-min Rain = 0
KGU1 160746Z 22008KT 04/M07 A3016 RMK A01 T00381074  RH  044%=      5-min Rain = 0
KGU1 160747Z 21007KT 04/M07 A3016 RMK A01 T00371070  RH  046%=      5-min Rain = 0
KGU1 160748Z 22007KT 04/M07 A3016 RMK A01 T00351072  RH  046%=      5-min Rain = 0
KGU1 160749Z 23007KT 04/M07 A3016 RMK A01 T00351071  RH  046%=      5-min Rain = 0
KGU1 160750Z 22008KT 03/M07 A3016 RMK A01 T00341068  RH  048%=      5-min Rain = 0
KGU1 160751Z 23007KT 03/M07 A3016 RMK A01 T00321068  RH  048%=      5-min Rain = 0
KGU1 160752Z 22008KT 03/M07 A3016 RMK A01 T00311068  RH  049%=      5-min Rain = 0
KGU1 160753Z 21010KT 03/M07 A3016 RMK A01 T00311068  RH  049%=      5-min Rain = 0
KGU1 160754Z 22009KT 03/M07 A3016 RMK A01 T00301067  RH  049%=      5-min Rain = 0
KGU1 160755Z 22009KT 03/M07 A3016 RMK A01 T00301067  RH  049%=      5-min Rain = 0
KGU1 160756Z 22009KT 03/M07 A3016 RMK A01 T00291067  RH  050%=      5-min Rain = 0
KGU1 160757Z 22009KT 03/M07 A3016 RMK A01 T00291067  RH  050%=      5-min Rain = 0
KGU1 160758Z 22008KT 03/M07 A3016 RMK A01 T00291067  RH  050%=      5-min Rain = 0
KGU1 160759Z 22008KT 03/M07 A3016 RMK A01 T00291067  RH  050%=      5-min Rain = 0
KGU1 160800Z 22009KT 03/M07 A3016 RMK A01 T00291067  RH  050%=      5-min Rain = 0
KGU1 160801Z 21008KT 03/M07 A3016 RMK A01 T00291067  RH  050%=      5-min Rain = 0
KGU1 160802Z 21009KT 03/M07 A3016 RMK A01 T00291067  RH  049%=      5-min Rain = 0
KGU1 160803Z 22008G13KT 03/M07 A3016 RMK A01 T00301068  RH  049%=      5-min Rain = 0
KGU1 160804Z 23006KT 03/M07 A3016 RMK A01 T00311070  RH  048%=      5-min Rain = 0
KGU1 160805Z 22008KT 03/M07 A3016 RMK A01 T00321070  RH  048%=      5-min Rain = 0
KGU1 160806Z 21009KT 03/M07 A3016 RMK A01 T00321069  RH  048%=      5-min Rain = 0
KGU1 160807Z 22008KT 03/M07 A3016 RMK A01 T00321069  RH  048%=      5-min Rain = 0
KGU1 160808Z 23008KT 03/M07 A3016 RMK A01 T00321069  RH  048%=      5-min Rain = 0
KGU1 160809Z 22006KT 03/M07 A3016 RMK A01 T00331074  RH  046%=      5-min Rain = 0
KGU1 160810Z 22008KT 04/M07 A3016 RMK A01 T00351073  RH  046%=      5-min Rain = 0
KGU1 160811Z 22007KT 04/M07 A3016 RMK A01 T00351074  RH  045%=      5-min Rain = 0
KGU1 160812Z 22008KT 04/M07 A3016 RMK A01 T00361073  RH  045%=      5-min Rain = 0
KGU1 160813Z 21008KT 04/M07 A3016 RMK A01 T00361073  RH  045%=      5-min Rain = 0
KGU1 160814Z 21009KT 04/M07 A3016 RMK A01 T00361071  RH  046%=      5-min Rain = 0
KGU1 160815Z 22009KT 04/M07 A3016 RMK A01 T00351070  RH  046%=      5-min Rain = 0
KGU1 160816Z 22009KT 03/M07 A3016 RMK A01 T00341069  RH  047%=      5-min Rain = 0
KGU1 160817Z 21010KT 03/M07 A3015 RMK A01 T00331069  RH  047%=      5-min Rain = 0
KGU1 160818Z 22011KT 03/M07 A3015 RMK A01 T00331071  RH  047%=      5-min Rain = 0
KGU1 160819Z 22009KT 03/M07 A3015 RMK A01 T00341070  RH  047%=      5-min Rain = 0
KGU1 160820Z 22009KT 03/M07 A3015 RMK A01 T00331069  RH  047%=      5-min Rain = 0
KGU1 160821Z 22009KT 03/M07 A3015 RMK A01 T00331071  RH  047%=      5-min Rain = 0
KGU1 160822Z 21009KT 03/M07 A3015 RMK A01 T00331069  RH  047%=      5-min Rain = 0
KGU1 160823Z 22009KT 03/M07 A3015 RMK A01 T00331068  RH  048%=      5-min Rain = 0
KGU1 160824Z 22007KT 03/M07 A3015 RMK A01 T00321070  RH  048%=      5-min Rain = 0
KGU1 160825Z 22008KT 03/M07 A3015 RMK A01 T00321069  RH  048%=      5-min Rain = 0
KGU1 160826Z 22007KT 03/M07 A3015 RMK A01 T00321069  RH  048%=      5-min Rain = 0
KGU1 160827Z 23007KT 03/M07 A3015 RMK A01 T00321072  RH  047%=      5-min Rain = 0
KGU1 160828Z 23006KT 03/M08 A3015 RMK A01 T00341075  RH  045%=      5-min Rain = 0
KGU1 160829Z 22008KT 04/M07 A3015 RMK A01 T00361074  RH  045%=      5-min Rain = 0
KGU1 160830Z 26006KT 04/M07 A3015 RMK A01 T00361072  RH  046%=      5-min Rain = 0
KGU1 160831Z 24007KT 04/M07 A3015 RMK A01 T00351072  RH  046%=      5-min Rain = 0
KGU1 160832Z 24007KT 04/M07 A3015 RMK A01 T00351073  RH  046%=      5-min Rain = 0
KGU1 160833Z 25007KT 03/M07 A3015 RMK A01 T00341072  RH  046%=      5-min Rain = 0
KGU1 160834Z 24007KT 03/M07 A3015 RMK A01 T00331072  RH  047%=      5-min Rain = 0
KGU1 160835Z 22005KT 03/M07 A3015 RMK A01 T00321071  RH  047%=      5-min Rain = 0
KGU1 160836Z 23005KT 03/M07 A3015 RMK A01 T00311069  RH  048%=      5-min Rain = 0
KGU1 160837Z 23004KT 03/M07 A3015 RMK A01 T00301070  RH  048%=      5-min Rain = 0
KGU1 160838Z 22006KT 03/M07 A3015 RMK A01 T00301071  RH  048%=      5-min Rain = 0
KGU1 160839Z 21007KT 03/M07 A3015 RMK A01 T00301070  RH  048%=      5-min Rain = 0
KGU1 160840Z 21007KT 03/M07 A3015 RMK A01 T00311070  RH  048%=      5-min Rain = 0
KGU1 160841Z 22007KT 03/M07 A3015 RMK A01 T00331074  RH  046%=      5-min Rain = 0
KGU1 160842Z 23006KT 04/M07 A3015 RMK A01 T00351074  RH  045%=      5-min Rain = 0
KGU1 160843Z 22006KT 04/M07 A3015 RMK A01 T00361072  RH  046%=      5-min Rain = 0
KGU1 160844Z 21007KT 04/M07 A3015 RMK A01 T00351071  RH  046%=      5-min Rain = 0
KGU1 160845Z 22007KT 04/M07 A3015 RMK A01 T00351072  RH  046%=      5-min Rain = 0
KGU1 160846Z 21007KT 04/M07 A3015 RMK A01 T00351073  RH  046%=      5-min Rain = 0
KGU1 160847Z 22007KT 04/M07 A3015 RMK A01 T00351073  RH  045%=      5-min Rain = 0
KGU1 160848Z 22008KT 04/M08 A3015 RMK A01 T00371076  RH  044%=      5-min Rain = 0
KGU1 160849Z 21008KT 04/M07 A3014 RMK A01 T00381073  RH  045%=      5-min Rain = 0
KGU1 160850Z 21009KT 04/M07 A3014 RMK A01 T00371071  RH  046%=      5-min Rain = 0
KGU1 160851Z 21009KT 04/M07 A3014 RMK A01 T00361069  RH  047%=      5-min Rain = 0
KGU1 160852Z 21010KT 04/M07 A3014 RMK A01 T00351069  RH  047%=      5-min Rain = 0
KGU1 160853Z 21011KT 03/M07 A3014 RMK A01 T00341069  RH  047%=      5-min Rain = 0
KGU1 160854Z 21010KT 03/M07 A3014 RMK A01 T00341069  RH  047%=      5-min Rain = 0
KGU1 160855Z 21010KT 03/M07 A3014 RMK A01 T00331069  RH  048%=      5-min Rain = 0
KGU1 160856Z 22008KT 03/M07 A3014 RMK A01 T00331069  RH  048%=      5-min Rain = 0
KGU1 160857Z 22006KT 03/M07 A3014 RMK A01 T00321068  RH  048%=      5-min Rain = 0
KGU1 160858Z 23006KT 03/M07 A3014 RMK A01 T00321067  RH  049%=      5-min Rain = 0
KGU1 160859Z 22007KT 03/M07 A3014 RMK A01 T00311067  RH  049%=      5-min Rain = 0
KGU1 160900Z 25006KT 03/M07 A3014 RMK A01 T00311067  RH  049%=      5-min Rain = 0
KGU1 160901Z 27006KT 03/M07 A3014 RMK A01 T00311067  RH  049%=      5-min Rain = 0
KGU1 160902Z 23006KT 03/M07 A3014 RMK A01 T00301068  RH  049%=      5-min Rain = 0
KGU1 160903Z 22008KT 03/M07 A3014 RMK A01 T00301067  RH  049%=      5-min Rain = 0
KGU1 160904Z 22008KT 03/M07 A3014 RMK A01 T00311069  RH  048%=      5-min Rain = 0
KGU1 160905Z 21007KT 03/M07 A3014 RMK A01 T00321069  RH  048%=      5-min Rain = 0
KGU1 160906Z 22008KT 03/M07 A3014 RMK A01 T00321069  RH  048%=      5-min Rain = 0
KGU1 160907Z 22008KT 03/M07 A3014 RMK A01 T00331069  RH  048%=      5-min Rain = 0
KGU1 160908Z 22008KT 03/M07 A3014 RMK A01 T00331068  RH  048%=      5-min Rain = 0
KGU1 160909Z 22008KT 03/M07 A3014 RMK A01 T00331068  RH  048%=      5-min Rain = 0
KGU1 160910Z 23006KT 03/M07 A3014 RMK A01 T00331068  RH  048%=      5-min Rain = 0
KGU1 160911Z 22007KT 03/M07 A3014 RMK A01 T00321068  RH  048%=      5-min Rain = 0
KGU1 160912Z 22006KT 03/M07 A3014 RMK A01 T00321068  RH  048%=      5-min Rain = 0
KGU1 160913Z 22005KT 03/M07 A3014 RMK A01 T00321069  RH  048%=      5-min Rain = 0
KGU1 160914Z 23005KT 03/M07 A3014 RMK A01 T00321069  RH  048%=      5-min Rain = 0
KGU1 160915Z 24005KT 03/M07 A3014 RMK A01 T00321069  RH  048%=      5-min Rain = 0
KGU1 160916Z 23005KT 03/M07 A3014 RMK A01 T00321070  RH  048%=      5-min Rain = 0
KGU1 160917Z 23006KT 03/M07 A3014 RMK A01 T00331070  RH  048%=      5-min Rain = 0
KGU1 160918Z 23004KT 03/M07 A3014 RMK A01 T00331070  RH  047%=      5-min Rain = 0
KGU1 160919Z 24006KT 03/M07 A3013 RMK A01 T00331070  RH  047%=      5-min Rain = 0
KGU1 160920Z 25005KT 03/M07 A3013 RMK A01 T00331073  RH  047%=      5-min Rain = 0
KGU1 160921Z 24006KT 04/M08 A3013 RMK A01 T00351079  RH  044%=      5-min Rain = 0
KGU1 160922Z 24004KT 04/M08 A3013 RMK A01 T00371079  RH  043%=      5-min Rain = 0
KGU1 160923Z 24005KT 04/M08 A3013 RMK A01 T00391079  RH  042%=      5-min Rain = 0
KGU1 160924Z 23005KT 04/M08 A3013 RMK A01 T00391079  RH  042%=      5-min Rain = 0
KGU1 160925Z 22006KT 04/M08 A3013 RMK A01 T00401078  RH  042%=      5-min Rain = 0
KGU1 160926Z 22006KT 04/M07 A3013 RMK A01 T00391073  RH  044%=      5-min Rain = 0
KGU1 160927Z 21008KT 04/M07 A3013 RMK A01 T00381070  RH  046%=      5-min Rain = 0
KGU1 160928Z 21011KT 04/M07 A3013 RMK A01 T00361069  RH  047%=      5-min Rain = 0
KGU1 160929Z 21009KT 04/M07 A3013 RMK A01 T00351070  RH  047%=      5-min Rain = 0
KGU1 160930Z 21011KT 04/M07 A3013 RMK A01 T00351070  RH  047%=      5-min Rain = 0
KGU1 160931Z 21009KT 04/M07 A3013 RMK A01 T00351074  RH  045%=      5-min Rain = 0
KGU1 160932Z 22009KT 04/M07 A3013 RMK A01 T00361072  RH  046%=      5-min Rain = 0
KGU1 160933Z 22008KT 04/M07 A3013 RMK A01 T00361071  RH  046%=      5-min Rain = 0
KGU1 160934Z 22008KT 04/M07 A3013 RMK A01 T00351072  RH  046%=      5-min Rain = 0
KGU1 160935Z 23006KT 04/M08 A3013 RMK A01 T00351075  RH  045%=      5-min Rain = 0
KGU1 160936Z 23006KT 04/M07 A3013 RMK A01 T00361074  RH  045%=      5-min Rain = 0
KGU1 160937Z 24007KT 04/M08 A3013 RMK A01 T00371078  RH  043%=      5-min Rain = 0
KGU1 160938Z 23007KT 04/M08 A3013 RMK A01 T00391075  RH  044%=      5-min Rain = 0
KGU1 160939Z 23005KT 04/M07 A3013 RMK A01 T00381073  RH  045%=      5-min Rain = 0
KGU1 160940Z 22007KT 04/M07 A3013 RMK A01 T00371072  RH  045%=      5-min Rain = 0
KGU1 160941Z 23006KT 04/M07 A3013 RMK A01 T00351070  RH  046%=      5-min Rain = 0
KGU1 160942Z 22007KT 03/M07 A3013 RMK A01 T00331070  RH  047%=      5-min Rain = 0
KGU1 160943Z 21009KT 03/M07 A3013 RMK A01 T00321069  RH  048%=      5-min Rain = 0
KGU1 160944Z 24007KT 03/M07 A3013 RMK A01 T00301069  RH  049%=      5-min Rain = 0
KGU1 160945Z 24006KT 03/M07 A3013 RMK A01 T00291069  RH  049%=      5-min Rain = 0
KGU1 160946Z 24007KT 03/M07 A3013 RMK A01 T00291069  RH  049%=      5-min Rain = 0
KGU1 160947Z 23007KT 03/M07 A3013 RMK A01 T00291069  RH  049%=      5-min Rain = 0
KGU1 160948Z 23007KT 03/M07 A3013 RMK A01 T00291070  RH  048%=      5-min Rain = 0
KGU1 160949Z 24004KT 03/M07 A3013 RMK A01 T00301071  RH  048%=      5-min Rain = 0
KGU1 160950Z 24006KT 03/M07 A3013 RMK A01 T00311071  RH  048%=      5-min Rain = 0
KGU1 160951Z 24005KT 03/M07 A3013 RMK A01 T00311073  RH  047%=      5-min Rain = 0
KGU1 160952Z 25007KT 03/M07 A3013 RMK A01 T00331074  RH  046%=      5-min Rain = 0
KGU1 160953Z 26006KT 03/M08 A3013 RMK A01 T00341077  RH  045%=      5-min Rain = 0
KGU1 160954Z 27006KT 04/M08 A3013 RMK A01 T00371078  RH  044%=      5-min Rain = 0
KGU1 160955Z 27007KT 04/M08 A3012 RMK A01 T00381078  RH  043%=      5-min Rain = 0
KGU1 160956Z 27007KT 04/M08 A3012 RMK A01 T00391079  RH  042%=      5-min Rain = 0
KGU1 160957Z 28008KT 04/M08 A3012 RMK A01 T00401079  RH  042%=      5-min Rain = 0
KGU1 160958Z 27008KT 04/M08 A3012 RMK A01 T00391078  RH  043%=      5-min Rain = 0
KGU1 160959Z 27008KT 04/M08 A3012 RMK A01 T00391077  RH  043%=      5-min Rain = 0
KGU1 161000Z 29007KT 04/M08 A3012 RMK A01 T00391077  RH  043%=      5-min Rain = 0
KGU1 161001Z 29011KT 04/M07 A3012 RMK A01 T00391074  RH  044%=      5-min Rain = 0
KGU1 161002Z 30012KT 04/M08 A3012 RMK A01 T00401075  RH  043%=      5-min Rain = 0
KGU1 161003Z 29010KT 04/M08 A3012 RMK A01 T00421077  RH  042%=      5-min Rain = 0
KGU1 161004Z 30009KT 04/M08 A3011 RMK A01 T00431077  RH  042%=      5-min Rain = 0
KGU1 161005Z 30010KT 04/M08 A3011 RMK A01 T00441077  RH  042%=      5-min Rain = 0
KGU1 161006Z 30011KT 05/M08 A3012 RMK A01 T00451077  RH  041%=      5-min Rain = 0
KGU1 161007Z 29010KT 05/M08 A3011 RMK A01 T00461078  RH  040%=      5-min Rain = 0
KGU1 161008Z 29010KT 05/M08 A3011 RMK A01 T00471078  RH  040%=      5-min Rain = 0
KGU1 161009Z 29012KT 05/M08 A3011 RMK A01 T00471077  RH  041%=      5-min Rain = 0
KGU1 161010Z 29011KT 05/M08 A3011 RMK A01 T00481079  RH  040%=      5-min Rain = 0
KGU1 161011Z 29009KT 05/M08 A3011 RMK A01 T00481078  RH  040%=      5-min Rain = 0
KGU1 161012Z 29008KT 05/M08 A3011 RMK A01 T00471077  RH  040%=      5-min Rain = 0
KGU1 161013Z 29011KT 05/M08 A3011 RMK A01 T00471078  RH  040%=      5-min Rain = 0
KGU1 161014Z 28011KT 05/M08 A3011 RMK A01 T00481079  RH  040%=      5-min Rain = 0
KGU1 161015Z 28010KT 05/M08 A3011 RMK A01 T00481078  RH  040%=      5-min Rain = 0
KGU1 161016Z 27009KT 05/M08 A3011 RMK A01 T00481078  RH  040%=      5-min Rain = 0
KGU1 161017Z 24006KT 05/M08 A3011 RMK A01 T00471078  RH  040%=      5-min Rain = 0
KGU1 161018Z 25007KT 05/M08 A3011 RMK A01 T00461079  RH  040%=      5-min Rain = 0
KGU1 161019Z 25007KT 05/M08 A3011 RMK A01 T00451080  RH  040%=      5-min Rain = 0
KGU1 161020Z 25005KT 04/M08 A3011 RMK A01 T00441080  RH  041%=      5-min Rain = 0
KGU1 161021Z 26006KT 04/M08 A3011 RMK A01 T00441079  RH  041%=      5-min Rain = 0
KGU1 161022Z 27006KT 04/M08 A3011 RMK A01 T00431077  RH  042%=      5-min Rain = 0
KGU1 161023Z 26007KT 04/M08 A3011 RMK A01 T00421077  RH  042%=      5-min Rain = 0
KGU1 161024Z 26008KT 04/M08 A3011 RMK A01 T00421079  RH  042%=      5-min Rain = 0
KGU1 161025Z 28008KT 04/M08 A3011 RMK A01 T00421076  RH  042%=      5-min Rain = 0
KGU1 161026Z 28008KT 04/M08 A3011 RMK A01 T00411076  RH  043%=      5-min Rain = 0
KGU1 161027Z 29009KT 04/M08 A3011 RMK A01 T00411076  RH  043%=      5-min Rain = 0
KGU1 161028Z 29010KT 04/M08 A3011 RMK A01 T00431078  RH  042%=      5-min Rain = 0
KGU1 161029Z 29010KT 05/M08 A3011 RMK A01 T00451077  RH  041%=      5-min Rain = 0
KGU1 161030Z 29011KT 05/M08 A3011 RMK A01 T00461078  RH  041%=      5-min Rain = 0
KGU1 161031Z 28010KT 05/M08 A3011 RMK A01 T00471078  RH  040%=      5-min Rain = 0
KGU1 161032Z 29011KT 05/M08 A3011 RMK A01 T00481079  RH  040%=      5-min Rain = 0
KGU1 161033Z 29011KT 05/M08 A3011 RMK A01 T00481078  RH  040%=      5-min Rain = 0
KGU1 161034Z 29011KT 05/M08 A3011 RMK A01 T00491079  RH  040%=      5-min Rain = 0
KGU1 161035Z 29010KT 05/M08 A3011 RMK A01 T00491079  RH  039%=      5-min Rain = 0
KGU1 161036Z 30012KT 05/M08 A3011 RMK A01 T00501080  RH  039%=      5-min Rain = 0
KGU1 161037Z 29012KT 05/M08 A3011 RMK A01 T00501080  RH  039%=      5-min Rain = 0
KGU1 161038Z 29009KT 05/M08 A3011 RMK A01 T00511080  RH  039%=      5-min Rain = 0
KGU1 161039Z 29010KT 05/M08 A3011 RMK A01 T00511080  RH  039%=      5-min Rain = 0
KGU1 161040Z 30013KT 05/M08 A3011 RMK A01 T00511081  RH  038%=      5-min Rain = 0
KGU1 161041Z 30013KT 05/M08 A3011 RMK A01 T00521081  RH  038%=      5-min Rain = 0
KGU1 161042Z 29010KT 05/M08 A3011 RMK A01 T00521081  RH  038%=      5-min Rain = 0
KGU1 161043Z 30011KT 05/M08 A3011 RMK A01 T00521082  RH  038%=      5-min Rain = 0
KGU1 161044Z 30012KT 05/M08 A3011 RMK A01 T00531083  RH  037%=      5-min Rain = 0
KGU1 161045Z 30012KT 05/M08 A3011 RMK A01 T00531081  RH  038%=      5-min Rain = 0
KGU1 161046Z 30013KT 05/M08 A3011 RMK A01 T00521082  RH  038%=      5-min Rain = 0
KGU1 161047Z 30012KT 05/M08 A3011 RMK A01 T00531082  RH  038%=      5-min Rain = 0
KGU1 161048Z 30012KT 05/M08 A3011 RMK A01 T00531082  RH  038%=      5-min Rain = 0
KGU1 161049Z 30013KT 05/M08 A3011 RMK A01 T00531082  RH  037%=      5-min Rain = 0
KGU1 161050Z 30013KT 05/M08 A3011 RMK A01 T00541083  RH  037%=      5-min Rain = 0
KGU1 161051Z 30013KT 06/M08 A3011 RMK A01 T00551083  RH  037%=      5-min Rain = 0
KGU1 161052Z 29011KT 06/M08 A301 RMK A01 T00551083  RH  037%=      5-min Rain = 0
KGU1 161053Z 30012KT 06/M08 A301 RMK A01 T00551083  RH  037%=      5-min Rain = 0
KGU1 161054Z 30011KT 06/M08 A301 RMK A01 T00551082  RH  037%=      5-min Rain = 0
KGU1 161055Z 30012KT 06/M08 A301 RMK A01 T00551083  RH  037%=      5-min Rain = 0
KGU1 161056Z 30013KT 06/M08 A301 RMK A01 T00551083  RH  037%=      5-min Rain = 0
KGU1 161057Z 29012KT 06/M08 A301 RMK A01 T00551083  RH  037%=      5-min Rain = 0
KGU1 161058Z 30012KT 06/M08 A301 RMK A01 T00561083  RH  037%=      5-min Rain = 0
KGU1 161059Z 30013KT 06/M08 A301 RMK A01 T00551082  RH  037%=      5-min Rain = 0
KGU1 161100Z 30012KT 06/M08 A301 RMK A01 T00561081  RH  037%=      5-min Rain = 0
KGU1 161101Z 30013KT 06/M08 A301 RMK A01 T00561081  RH  037%=      5-min Rain = 0
KGU1 161102Z 30012KT 06/M08 A301 RMK A01 T00561082  RH  037%=      5-min Rain = 0
KGU1 161103Z 30012KT 06/M08 A301 RMK A01 T00561082  RH  037%=      5-min Rain = 0
KGU1 161104Z 30014KT 06/M08 A301 RMK A01 T00561082  RH  037%=      5-min Rain = 0
KGU1 161105Z 29013KT 06/M08 A301 RMK A01 T00571083  RH  036%=      5-min Rain = 0
KGU1 161106Z 29012KT 06/M08 A301 RMK A01 T00571083  RH  036%=      5-min Rain = 0
KGU1 161107Z 29010KT 06/M08 A301 RMK A01 T00581084  RH  036%=      5-min Rain = 0
KGU1 161108Z 29009KT 06/M08 A301 RMK A01 T00571083  RH  036%=      5-min Rain = 0
KGU1 161109Z 30012KT 06/M08 A301 RMK A01 T00571083  RH  036%=      5-min Rain = 0
KGU1 161110Z 30011KT 06/M08 A301 RMK A01 T00571082  RH  037%=      5-min Rain = 0
KGU1 161111Z 29011KT 06/M08 A301 RMK A01 T00571081  RH  037%=      5-min Rain = 0
KGU1 161112Z 29011KT 06/M08 A301 RMK A01 T00561081  RH  037%=      5-min Rain = 0
KGU1 161113Z 28012KT 06/M08 A301 RMK A01 T00561082  RH  037%=      5-min Rain = 0
KGU1 161114Z 29009KT 06/M08 A301 RMK A01 T00561080  RH  037%=      5-min Rain = 0
KGU1 161115Z 30012KT 06/M08 A301 RMK A01 T00561081  RH  037%=      5-min Rain = 0
KGU1 161116Z 30012KT 06/M08 A301 RMK A01 T00561080  RH  037%=      5-min Rain = 0
KGU1 161117Z 30012KT 06/M08 A301 RMK A01 T00561080  RH  037%=      5-min Rain = 0
KGU1 161118Z 30012KT 06/M08 A301 RMK A01 T00561080  RH  037%=      5-min Rain = 0
KGU1 161119Z 30012KT 06/M08 A301 RMK A01 T00571081  RH  037%=      5-min Rain = 0
KGU1 161120Z 30012KT 06/M08 A301 RMK A01 T00571081  RH  037%=      5-min Rain = 0
KGU1 161121Z 29012KT 06/M08 A301 RMK A01 T00581082  RH  036%=      5-min Rain = 0
KGU1 161122Z 29009KT 06/M08 A301 RMK A01 T00591081  RH  036%=      5-min Rain = 0
KGU1 161123Z 30011KT 06/M08 A301 RMK A01 T00581081  RH  036%=      5-min Rain = 0
KGU1 161124Z 30012KT 06/M08 A301 RMK A01 T00581081  RH  036%=      5-min Rain = 0
KGU1 161125Z 30013KT 06/M08 A301 RMK A01 T00581082  RH  036%=      5-min Rain = 0
KGU1 161126Z 31012KT 06/M08 A301 RMK A01 T00591081  RH  036%=      5-min Rain = 0
KGU1 161127Z 30013KT 06/M08 A301 RMK A01 T00581081  RH  036%=      5-min Rain = 0
KGU1 161128Z 30011KT 06/M08 A301 RMK A01 T00581081  RH  036%=      5-min Rain = 0
KGU1 161129Z 30010KT 06/M08 A301 RMK A01 T00581080  RH  037%=      5-min Rain = 0
KGU1 161130Z 30013KT 06/M08 A301 RMK A01 T00581080  RH  037%=      5-min Rain = 0
KGU1 161131Z 30014KT 06/M08 A301 RMK A01 T00591082  RH  036%=      5-min Rain = 0
KGU1 161132Z 30012KT 06/M08 A301 RMK A01 T00591081  RH  036%=      5-min Rain = 0
KGU1 161133Z 30014KT 06/M08 A301 RMK A01 T00591081  RH  036%=      5-min Rain = 0
KGU1 161134Z 30012KT 06/M08 A301 RMK A01 T00591080  RH  037%=      5-min Rain = 0
KGU1 161135Z 30014KT 06/M08 A301 RMK A01 T00591080  RH  036%=      5-min Rain = 0
KGU1 161136Z 30013KT 06/M08 A301 RMK A01 T00591081  RH  036%=      5-min Rain = 0
KGU1 161137Z 31013KT 06/M08 A301 RMK A01 T00591080  RH  036%=      5-min Rain = 0
KGU1 161138Z 30013KT 06/M08 A301 RMK A01 T00591080  RH  037%=      5-min Rain = 0
KGU1 161139Z 30015KT 06/M08 A301 RMK A01 T00581079  RH  037%=      5-min Rain = 0
KGU1 161140Z 29013KT 06/M08 A301 RMK A01 T00581080  RH  037%=      5-min Rain = 0
KGU1 161141Z 30012KT 06/M08 A301 RMK A01 T00581081  RH  036%=      5-min Rain = 0
KGU1 161142Z 29014KT 06/M08 A301 RMK A01 T00591081  RH  036%=      5-min Rain = 0
KGU1 161143Z 30014KT 06/M08 A301 RMK A01 T00581081  RH  036%=      5-min Rain = 0
KGU1 161144Z 30013KT 06/M08 A301 RMK A01 T00591081  RH  036%=      5-min Rain = 0
KGU1 161145Z 30012KT 06/M08 A301 RMK A01 T00591081  RH  036%=      5-min Rain = 0
KGU1 161146Z 30013KT 06/M08 A301 RMK A01 T00581081  RH  037%=      5-min Rain = 0
KGU1 161147Z 29012KT 06/M08 A301 RMK A01 T00581080  RH  037%=      5-min Rain = 0
KGU1 161148Z 29009KT 06/M08 A301 RMK A01 T00571080  RH  037%=      5-min Rain = 0
KGU1 161149Z 30010G15KT 06/M08 A301 RMK A01 T00561080  RH  037%=      5-min Rain = 0
KGU1 161150Z 30012KT 06/M08 A301 RMK A01 T00561079  RH  038%=      5-min Rain = 0
KGU1 161151Z 30011KT 06/M08 A301 RMK A01 T00561080  RH  037%=      5-min Rain = 0
KGU1 161152Z 30011KT 06/M08 A301 RMK A01 T00561079  RH  038%=      5-min Rain = 0
KGU1 161153Z 29011KT 06/M08 A301 RMK A01 T00551080  RH  037%=      5-min Rain = 0
KGU1 161154Z 29011KT 06/M08 A301 RMK A01 T00551079  RH  038%=      5-min Rain = 0
KGU1 161155Z 29011KT 05/M08 A301 RMK A01 T00541079  RH  038%=      5-min Rain = 0
KGU1 161156Z 29008KT 05/M08 A301 RMK A01 T00541080  RH  038%=      5-min Rain = 0
KGU1 161157Z 27008KT 05/M08 A301 RMK A01 T00541079  RH  038%=      5-min Rain = 0
KGU1 161158Z 24006KT 05/M08 A301 RMK A01 T00541079  RH  038%=      5-min Rain = 0
KGU1 161159Z 22007KT 05/M07 A301 RMK A01 T00511073  RH  041%=      5-min Rain = 0
KGU1 161200Z 22007KT 05/M07 A301 RMK A01 T00451069  RH  044%=      5-min Rain = 0
KGU1 161201Z 21008KT 04/M07 A301 RMK A01 T00391068  RH  046%=      5-min Rain = 0
KGU1 161202Z 22008KT 04/M07 A301 RMK A01 T00351066  RH  048%=      5-min Rain = 0
KGU1 161203Z 22008KT 03/M07 A301 RMK A01 T00311067  RH  049%=      5-min Rain = 0
KGU1 161204Z 21008KT 03/M07 A301 RMK A01 T00291066  RH  050%=      5-min Rain = 0
KGU1 161205Z 22008KT 03/M07 A301 RMK A01 T00281069  RH  050%=      5-min Rain = 0
KGU1 161206Z 21009KT 03/M07 A301 RMK A01 T00281067  RH  050%=      5-min Rain = 0
KGU1 161207Z 21008KT 03/M07 A301 RMK A01 T00271066  RH  051%=      5-min Rain = 0
KGU1 161208Z 24006KT 03/M07 A301 RMK A01 T00261067  RH  051%=      5-min Rain = 0
KGU1 161209Z 24007KT 03/M07 A301 RMK A01 T00281072  RH  048%=      5-min Rain = 0
KGU1 161210Z 26005KT 03/M08 A301 RMK A01 T00321076  RH  045%=      5-min Rain = 0
KGU1 161211Z 26007KT 04/M08 A301 RMK A01 T00371077  RH  044%=      5-min Rain = 0
KGU1 161212Z 26006KT 04/M08 A3009 RMK A01 T00401077  RH  043%=      5-min Rain = 0
KGU1 161213Z 27006KT 04/M08 A3009 RMK A01 T00421077  RH  042%=      5-min Rain = 0
KGU1 161214Z 27007KT 04/M08 A3009 RMK A01 T00431076  RH  042%=      5-min Rain = 0
KGU1 161215Z 28006KT 05/M08 A3009 RMK A01 T00451075  RH  042%=      5-min Rain = 0
KGU1 161216Z 29009KT 05/M08 A3009 RMK A01 T00461076  RH  041%=      5-min Rain = 0
KGU1 161217Z 27007KT 05/M08 A3009 RMK A01 T00481075  RH  041%=      5-min Rain = 0
KGU1 161218Z 28006KT 05/M08 A3009 RMK A01 T00481076  RH  041%=      5-min Rain = 0
KGU1 161219Z 28007KT 05/M08 A3009 RMK A01 T00491077  RH  040%=      5-min Rain = 0
KGU1 161220Z 28008KT 05/M08 A3009 RMK A01 T00491075  RH  041%=      5-min Rain = 0
KGU1 161221Z 29010KT 05/M08 A3009 RMK A01 T00501076  RH  040%=      5-min Rain = 0
KGU1 161222Z 29009KT 05/M08 A3009 RMK A01 T00511076  RH  040%=      5-min Rain = 0
KGU1 161223Z 30009KT 05/M08 A3009 RMK A01 T00531078  RH  039%=      5-min Rain = 0
KGU1 161224Z 30011KT 05/M08 A3009 RMK A01 T00541077  RH  039%=      5-min Rain = 0
KGU1 161225Z 30014KT 06/M08 A3009 RMK A01 T00551079  RH  038%=      5-min Rain = 0
KGU1 161226Z 30013KT 06/M08 A3009 RMK A01 T00561079  RH  037%=      5-min Rain = 0
KGU1 161227Z 30011KT 06/M08 A3009 RMK A01 T00571079  RH  037%=      5-min Rain = 0
KGU1 161228Z 30012G17KT 06/M08 A3009 RMK A01 T00581078  RH  037%=      5-min Rain = 0
KGU1 161229Z 30014KT 06/M08 A3009 RMK A01 T00581079  RH  037%=      5-min Rain = 0
KGU1 161230Z 30014KT 06/M08 A3009 RMK A01 T00581080  RH  037%=      5-min Rain = 0
KGU1 161231Z 30013KT 06/M08 A3009 RMK A01 T00591081  RH  036%=      5-min Rain = 0
KGU1 161232Z 30013KT 06/M08 A3009 RMK A01 T00591079  RH  037%=      5-min Rain = 0
KGU1 161233Z 30014KT 06/M08 A3009 RMK A01 T00591079  RH  037%=      5-min Rain = 0
KGU1 161234Z 30013KT 06/M08 A3009 RMK A01 T00591078  RH  037%=      5-min Rain = 0
KGU1 161235Z 30011KT 06/M08 A3009 RMK A01 T00581078  RH  037%=      5-min Rain = 0
KGU1 161236Z 30011KT 06/M08 A3009 RMK A01 T00581077  RH  038%=      5-min Rain = 0
KGU1 161237Z 30012KT 06/M08 A3009 RMK A01 T00571077  RH  038%=      5-min Rain = 0
KGU1 161238Z 30013KT 06/M08 A3009 RMK A01 T00581078  RH  037%=      5-min Rain = 0
KGU1 161239Z 30013KT 06/M08 A3009 RMK A01 T00581078  RH  037%=      5-min Rain = 0
KGU1 161240Z 30014KT 06/M08 A3009 RMK A01 T00581078  RH  037%=      5-min Rain = 0
KGU1 161241Z 30015KT 06/M08 A3009 RMK A01 T00591080  RH  037%=      5-min Rain = 0
KGU1 161242Z 30012KT 06/M08 A3009 RMK A01 T00591080  RH  037%=      5-min Rain = 0
KGU1 161243Z 30012KT 06/M08 A3009 RMK A01 T00591078  RH  037%=      5-min Rain = 0
KGU1 161244Z 30014KT 06/M08 A3009 RMK A01 T00581078  RH  037%=      5-min Rain = 0
KGU1 161245Z 30014KT 06/M08 A3009 RMK A01 T00581078  RH  037%=      5-min Rain = 0
KGU1 161246Z 30012KT 06/M08 A3009 RMK A01 T00581079  RH  037%=      5-min Rain = 0
KGU1 161247Z 30013KT 06/M08 A3009 RMK A01 T00591079  RH  037%=      5-min Rain = 0
KGU1 161248Z 29012KT 06/M08 A3009 RMK A01 T00581077  RH  037%=      5-min Rain = 0
KGU1 161249Z 29010KT 06/M08 A3009 RMK A01 T00581077  RH  038%=      5-min Rain = 0
KGU1 161250Z 29010KT 06/M08 A3009 RMK A01 T00571076  RH  038%=      5-min Rain = 0
KGU1 161251Z 30011KT 06/M08 A3009 RMK A01 T00571076  RH  038%=      5-min Rain = 0
KGU1 161252Z 30010KT 06/M08 A3009 RMK A01 T00571077  RH  038%=      5-min Rain = 0
KGU1 161253Z 30009KT 06/M08 A3009 RMK A01 T00571076  RH  038%=      5-min Rain = 0
KGU1 161254Z 29012KT 06/M08 A3009 RMK A01 T00571077  RH  038%=      5-min Rain = 0
KGU1 161255Z 30012KT 06/M08 A3009 RMK A01 T00571077  RH  038%=      5-min Rain = 0
KGU1 161256Z 30014KT 06/M08 A3009 RMK A01 T00571077  RH  038%=      5-min Rain = 0
KGU1 161257Z 30012KT 06/M08 A3009 RMK A01 T00581078  RH  037%=      5-min Rain = 0
KGU1 161258Z 30013KT 06/M08 A3009 RMK A01 T00581078  RH  037%=      5-min Rain = 0
KGU1 161259Z 30015KT 06/M08 A3009 RMK A01 T00591079  RH  037%=      5-min Rain = 0
KGU1 161300Z 30013KT 06/M08 A3009 RMK A01 T00591078  RH  037%=      5-min Rain = 0
KGU1 161301Z 30010KT 06/M08 A3009 RMK A01 T00591077  RH  038%=      5-min Rain = 0
KGU1 161302Z 30011KT 06/M08 A3009 RMK A01 T00581077  RH  038%=      5-min Rain = 0
KGU1 161303Z 30011KT 06/M08 A3009 RMK A01 T00581077  RH  038%=      5-min Rain = 0
KGU1 161304Z 29013KT 06/M08 A3009 RMK A01 T00581077  RH  038%=      5-min Rain = 0
KGU1 161305Z 29012KT 06/M08 A3009 RMK A01 T00581077  RH  038%=      5-min Rain = 0
KGU1 161306Z 30011KT 06/M08 A3009 RMK A01 T00581077  RH  038%=      5-min Rain = 0
KGU1 161307Z 29012KT 06/M08 A3009 RMK A01 T00581078  RH  037%=      5-min Rain = 0
KGU1 161308Z 29013KT 06/M08 A3009 RMK A01 T00581077  RH  038%=      5-min Rain = 0
KGU1 161309Z 30014KT 06/M08 A3009 RMK A01 T00581077  RH  038%=      5-min Rain = 0
KGU1 161310Z 30013KT 06/M08 A3009 RMK A01 T00581078  RH  037%=      5-min Rain = 0
KGU1 161311Z 30012KT 06/M08 A3009 RMK A01 T00581077  RH  038%=      5-min Rain = 0
KGU1 161312Z 30012KT 06/M08 A3009 RMK A01 T00581078  RH  037%=      5-min Rain = 0
KGU1 161313Z 30012KT 06/M08 A3009 RMK A01 T00571077  RH  038%=      5-min Rain = 0
KGU1 161314Z 30010KT 06/M08 A3009 RMK A01 T00571078  RH  038%=      5-min Rain = 0
KGU1 161315Z 31011KT 06/M08 A3009 RMK A01 T00571078  RH  038%=      5-min Rain = 0
KGU1 161316Z 31011KT 06/M08 A3009 RMK A01 T00571080  RH  037%=      5-min Rain = 0
KGU1 161317Z 30010KT 06/M08 A3009 RMK A01 T00581079  RH  037%=      5-min Rain = 0
KGU1 161318Z 30012KT 06/M08 A3009 RMK A01 T00571078  RH  038%=      5-min Rain = 0
KGU1 161319Z 31013KT 06/M08 A3009 RMK A01 T00571078  RH  037%=      5-min Rain = 0
KGU1 161320Z 31010KT 06/M08 A3009 RMK A01 T00571079  RH  037%=      5-min Rain = 0
KGU1 161321Z 31010KT 06/M08 A3009 RMK A01 T00581079  RH  037%=      5-min Rain = 0
KGU1 161322Z 30012KT 06/M08 A3009 RMK A01 T00571077  RH  038%=      5-min Rain = 0
KGU1 161323Z 30014KT 06/M08 A3009 RMK A01 T00571077  RH  038%=      5-min Rain = 0
KGU1 161324Z 30012KT 06/M08 A3009 RMK A01 T00571079  RH  037%=      5-min Rain = 0
KGU1 161325Z 30011KT 06/M08 A3009 RMK A01 T00571078  RH  038%=      5-min Rain = 0
KGU1 161326Z 30013KT 06/M08 A3009 RMK A01 T00571078  RH  038%=      5-min Rain = 0
KGU1 161327Z 30012KT 06/M08 A3009 RMK A01 T00571078  RH  038%=      5-min Rain = 0
KGU1 161328Z 31012KT 06/M08 A3009 RMK A01 T00571079  RH  037%=      5-min Rain = 0
KGU1 161329Z 31009KT 06/M08 A3009 RMK A01 T00571078  RH  038%=      5-min Rain = 0
KGU1 161330Z 30011KT 06/M08 A3009 RMK A01 T00571079  RH  038%=      5-min Rain = 0
KGU1 161331Z 30012KT 06/M08 A3009 RMK A01 T00561077  RH  038%=      5-min Rain = 0
KGU1 161332Z 30013KT 06/M08 A3009 RMK A01 T00561080  RH  037%=      5-min Rain = 0
KGU1 161333Z 30012KT 06/M08 A3009 RMK A01 T00571080  RH  037%=      5-min Rain = 0
KGU1 161334Z 30011KT 06/M08 A3009 RMK A01 T00571081  RH  037%=      5-min Rain = 0
KGU1 161335Z 30010KT 06/M08 A3009 RMK A01 T00581080  RH  037%=      5-min Rain = 0
KGU1 161336Z 29012KT 06/M08 A3009 RMK A01 T00571080  RH  037%=      5-min Rain = 0
KGU1 161337Z 30011KT 06/M08 A3009 RMK A01 T00571079  RH  037%=      5-min Rain = 0
KGU1 161338Z 30013KT 06/M08 A3009 RMK A01 T00561078  RH  038%=      5-min Rain = 0
KGU1 161339Z 30011KT 06/M08 A3009 RMK A01 T00561078  RH  038%=      5-min Rain = 0
KGU1 161340Z 30012KT 06/M08 A3009 RMK A01 T00561077  RH  038%=      5-min Rain = 0
KGU1 161341Z 30011KT 06/M08 A3009 RMK A01 T00551078  RH  038%=      5-min Rain = 0
KGU1 161342Z 30012KT 06/M08 A3009 RMK A01 T00551077  RH  039%=      5-min Rain = 0
KGU1 161343Z 30010KT 06/M08 A3009 RMK A01 T00551078  RH  038%=      5-min Rain = 0
KGU1 161344Z 30010KT 05/M08 A3009 RMK A01 T00541076  RH  039%=      5-min Rain = 0
KGU1 161345Z 30011KT 05/M08 A3009 RMK A01 T00541078  RH  038%=      5-min Rain = 0
KGU1 161346Z 30010KT 05/M08 A3009 RMK A01 T00541077  RH  039%=      5-min Rain = 0
KGU1 161347Z 30011KT 05/M08 A3009 RMK A01 T00541077  RH  039%=      5-min Rain = 0
KGU1 161348Z 30010KT 05/M08 A3009 RMK A01 T00541077  RH  039%=      5-min Rain = 0
KGU1 161349Z 30009KT 05/M08 A3009 RMK A01 T00541077  RH  039%=      5-min Rain = 0
KGU1 161350Z 29009KT 05/M08 A3009 RMK A01 T00541077  RH  039%=      5-min Rain = 0
KGU1 161351Z 26007KT 05/M08 A3009 RMK A01 T00541077  RH  039%=      5-min Rain = 0
KGU1 161352Z 27007KT 05/M08 A3009 RMK A01 T00541077  RH  039%=      5-min Rain = 0
KGU1 161353Z 28008KT 05/M08 A3009 RMK A01 T00541077  RH  039%=      5-min Rain = 0
KGU1 161354Z 25006KT 05/M08 A3009 RMK A01 T00541077  RH  039%=      5-min Rain = 0
KGU1 161355Z 22006KT 05/M07 A3009 RMK A01 T00521071  RH  041%=      5-min Rain = 0
KGU1 161356Z 22004KT 05/M07 A3009 RMK A01 T00481068  RH  043%=      5-min Rain = 0
KGU1 161357Z 23005KT 04/M07 A3009 RMK A01 T00441066  RH  045%=      5-min Rain = 0
KGU1 161358Z 22007KT 04/M07 A3009 RMK A01 T00401068  RH  046%=      5-min Rain = 0
KGU1 161359Z 22006KT 04/M07 A3009 RMK A01 T00371066  RH  047%=      5-min Rain = 0
KGU1 161400Z 22006KT 04/M07 A3009 RMK A01 T00351066  RH  048%=      5-min Rain = 0
KGU1 161401Z 23007KT 03/M07 A3009 RMK A01 T00331066  RH  049%=      5-min Rain = 0
KGU1 161402Z 23007KT 03/M07 A3009 RMK A01 T00321066  RH  049%=      5-min Rain = 0
KGU1 161403Z 23007KT 03/M07 A3009 RMK A01 T00301065  RH  050%=      5-min Rain = 0
KGU1 161404Z 24006KT 03/M07 A3009 RMK A01 T00311068  RH  049%=      5-min Rain = 0
KGU1 161405Z 26005KT 03/M07 A3009 RMK A01 T00321069  RH  048%=      5-min Rain = 0
KGU1 161406Z 26007KT 04/M07 A3009 RMK A01 T00351073  RH  046%=      5-min Rain = 0
KGU1 161407Z 26007KT 04/M08 A3009 RMK A01 T00391075  RH  044%=      5-min Rain = 0
KGU1 161408Z 28008KT 04/M08 A3009 RMK A01 T00421075  RH  043%=      5-min Rain = 0
KGU1 161409Z 29009KT 05/M08 A3009 RMK A01 T00451075  RH  042%=      5-min Rain = 0
KGU1 161410Z 29010KT 05/M08 A3008 RMK A01 T00481076  RH  041%=      5-min Rain = 0
KGU1 161411Z 29011KT 05/M08 A3008 RMK A01 T00501078  RH  039%=      5-min Rain = 0
KGU1 161412Z 30012KT 05/M08 A3008 RMK A01 T00531079  RH  038%=      5-min Rain = 0
KGU1 161413Z 30012KT 06/M08 A3008 RMK A01 T00551080  RH  038%=      5-min Rain = 0
KGU1 161414Z 31012KT 06/M08 A3009 RMK A01 T00561080  RH  037%=      5-min Rain = 0
KGU1 161415Z 29010KT 06/M08 A3009 RMK A01 T00571078  RH  038%=      5-min Rain = 0
KGU1 161416Z 27009KT 06/M08 A3009 RMK A01 T00551075  RH  039%=      5-min Rain = 0
KGU1 161417Z 29007KT 05/M07 A3009 RMK A01 T00531074  RH  040%=      5-min Rain = 0
KGU1 161418Z 30006KT 05/M07 A3009 RMK A01 T00521074  RH  040%=      5-min Rain = 0
KGU1 161419Z 29008KT 05/M08 A3009 RMK A01 T00531075  RH  039%=      5-min Rain = 0
KGU1 161420Z 28007KT 05/M07 A3009 RMK A01 T00531074  RH  040%=      5-min Rain = 0
KGU1 161421Z 29008KT 05/M08 A3009 RMK A01 T00541076  RH  039%=      5-min Rain = 0
KGU1 161422Z 29007KT 06/M08 A3009 RMK A01 T00551076  RH  039%=      5-min Rain = 0
KGU1 161423Z 31008KT 06/M08 A3009 RMK A01 T00561077  RH  038%=      5-min Rain = 0
KGU1 161424Z 30007KT 06/M08 A3009 RMK A01 T00561077  RH  038%=      5-min Rain = 0
KGU1 161425Z 29006KT 06/M08 A3009 RMK A01 T00571075  RH  038%=      5-min Rain = 0
KGU1 161426Z 30006KT 06/M08 A3009 RMK A01 T00571076  RH  038%=      5-min Rain = 0
KGU1 161427Z 29007KT 06/M08 A3009 RMK A01 T00581076  RH  038%=      5-min Rain = 0
KGU1 161428Z 30009KT 06/M08 A3009 RMK A01 T00581077  RH  038%=      5-min Rain = 0
KGU1 161429Z 30009KT 06/M08 A3009 RMK A01 T00591078  RH  037%=      5-min Rain = 0
KGU1 161430Z 29006KT 06/M08 A3009 RMK A01 T00601078  RH  037%=      5-min Rain = 0
KGU1 161431Z 28008KT 06/M08 A3009 RMK A01 T00601075  RH  038%=      5-min Rain = 0
KGU1 161432Z 29008KT 06/M08 A3009 RMK A01 T00601076  RH  037%=      5-min Rain = 0
KGU1 161433Z 29009KT 06/M08 A3009 RMK A01 T00611078  RH  037%=      5-min Rain = 0
KGU1 161434Z 28007KT 06/M08 A3009 RMK A01 T00611076  RH  037%=      5-min Rain = 0
KGU1 161435Z 26007KT 06/M08 A3009 RMK A01 T00621077  RH  037%=      5-min Rain = 0
KGU1 161436Z 26004KT 06/M08 A3009 RMK A01 T00621077  RH  037%=      5-min Rain = 0
KGU1 161437Z 22003KT 06/M07 A3009 RMK A01 T00611072  RH  038%=      5-min Rain = 0
KGU1 161438Z 22002KT 06/M07 A3009 RMK A01 T00591069  RH  040%=      5-min Rain = 0
KGU1 161439Z 24002KT 06/M07 A3009 RMK A01 T00571067  RH  041%=      5-min Rain = 0
KGU1 161440Z 23003KT 06/M07 A3009 RMK A01 T00561069  RH  041%=      5-min Rain = 0
KGU1 161441Z 23003KT 06/M07 A3009 RMK A01 T00551068  RH  041%=      5-min Rain = 0
KGU1 161442Z 26003KT 06/M07 A3009 RMK A01 T00551067  RH  041%=      5-min Rain = 0
KGU1 161443Z 30006KT 06/M07 A3009 RMK A01 T00581074  RH  039%=      5-min Rain = 0
KGU1 161444Z 29008KT 06/M07 A3009 RMK A01 T00621071  RH  038%=      5-min Rain = 0
KGU1 161445Z 29008KT 07/M08 A3009 RMK A01 T00651075  RH  036%=      5-min Rain = 0
KGU1 161446Z 30007KT 07/M08 A3009 RMK A01 T00671076  RH  036%=      5-min Rain = 0
KGU1 161447Z 31007KT 07/M07 A3009 RMK A01 T00691074  RH  036%=      5-min Rain = 0
KGU1 161448Z 32009KT 07/M08 A3009 RMK A01 T00711081  RH  033%=      5-min Rain = 0
KGU1 161449Z 31007KT 07/M08 A3009 RMK A01 T00731083  RH  032%=      5-min Rain = 0
KGU1 161450Z 33004KT 08/M08 A3009 RMK A01 T00751080  RH  033%=      5-min Rain = 0
KGU1 161451Z 34004KT 08/M08 A3009 RMK A01 T00761080  RH  033%=      5-min Rain = 0
KGU1 161452Z 33004KT 08/M08 A3009 RMK A01 T00771081  RH  032%=      5-min Rain = 0
KGU1 161453Z 31002KT 08/M08 A3009 RMK A01 T00771080  RH  032%=      5-min Rain = 0
KGU1 161454Z 28002KT 08/M07 A3009 RMK A01 T00781074  RH  034%=      5-min Rain = 0
KGU1 161455Z 27002KT 08/M08 A3009 RMK A01 T00801075  RH  033%=      5-min Rain = 0
KGU1 161456Z 31004KT 08/M08 A3009 RMK A01 T00801078  RH  032%=      5-min Rain = 0
KGU1 161457Z 25002KT 08/M08 A3009 RMK A01 T00801081  RH  031%=      5-min Rain = 0
KGU1 161458Z 20002KT 08/M07 A3009 RMK A01 T00801069  RH  034%=      5-min Rain = 0
KGU1 161459Z 20001KT 08/M08 A3009 RMK A01 T00791076  RH  033%=      5-min Rain = 0
KGU1 161500Z 20003KT 08/M07 A3009 RMK A01 T00781071  RH  034%=      5-min Rain = 0
KGU1 161501Z 19006KT 08/M07 A3009 RMK A01 T00761068  RH  036%=      5-min Rain = 0
KGU1 161502Z 21008KT 07/M06 A3009 RMK A01 T00721064  RH  038%=      5-min Rain = 0
KGU1 161503Z 21006KT 07/M07 A3009 RMK A01 T00691065  RH  038%=      5-min Rain = 0
KGU1 161504Z 20007KT 07/M07 A3009 RMK A01 T00661066  RH  039%=      5-min Rain = 0
KGU1 161505Z 21009KT 06/M07 A3009 RMK A01 T00631066  RH  040%=      5-min Rain = 0
KGU1 161506Z 21009KT 06/M07 A3009 RMK A01 T00601065  RH  041%=      5-min Rain = 0
KGU1 161507Z 22009KT 06/M07 A301 RMK A01 T00571066  RH  041%=      5-min Rain = 0
KGU1 161508Z 22007KT 06/M07 A301 RMK A01 T00551066  RH  042%=      5-min Rain = 0
KGU1 161509Z 23008KT 06/M07 A301 RMK A01 T00551065  RH  042%=      5-min Rain = 0
KGU1 161510Z 22008KT 05/M07 A301 RMK A01 T00531066  RH  043%=      5-min Rain = 0
KGU1 161511Z 22007KT 05/M07 A301 RMK A01 T00511065  RH  043%=      5-min Rain = 0
KGU1 161512Z 21006KT 05/M06 A301 RMK A01 T00511064  RH  044%=      5-min Rain = 0
KGU1 161513Z 21008KT 05/M06 A301 RMK A01 T00501064  RH  044%=      5-min Rain = 0
KGU1 161514Z 22008KT 05/M06 A301 RMK A01 T00491063  RH  044%=      5-min Rain = 0
KGU1 161515Z 21008KT 05/M06 A301 RMK A01 T00481062  RH  045%=      5-min Rain = 0
KGU1 161516Z 21008KT 05/M06 A301 RMK A01 T00471063  RH  045%=      5-min Rain = 0
KGU1 161517Z 22008KT 05/M06 A301 RMK A01 T00471063  RH  045%=      5-min Rain = 0
KGU1 161518Z 23008KT 05/M06 A301 RMK A01 T00471064  RH  045%=      5-min Rain = 0
KGU1 161519Z 23005KT 05/M06 A301 RMK A01 T00481063  RH  045%=      5-min Rain = 0
KGU1 161520Z 24007KT 05/M07 A301 RMK A01 T00491065  RH  044%=      5-min Rain = 0
KGU1 161521Z 24008KT 05/M07 A3009 RMK A01 T00501067  RH  043%=      5-min Rain = 0
KGU1 161522Z 26005KT 05/M06 A3009 RMK A01 T00511064  RH  044%=      5-min Rain = 0
KGU1 161523Z 27005KT 05/M06 A3009 RMK A01 T00511061  RH  045%=      5-min Rain = 0
KGU1 161524Z 27006KT 05/M06 A3009 RMK A01 T00531060  RH  044%=      5-min Rain = 0
KGU1 161525Z 27006KT 05/M06 A3009 RMK A01 T00541060  RH  044%=      5-min Rain = 0
KGU1 161526Z 27006KT 06/M06 A3009 RMK A01 T00551063  RH  043%=      5-min Rain = 0
KGU1 161527Z 27005KT 06/M06 A3009 RMK A01 T00561064  RH  042%=      5-min Rain = 0
KGU1 161528Z 27005KT 06/M07 A3009 RMK A01 T00581066  RH  041%=      5-min Rain = 0
KGU1 161529Z 27004KT 06/M07 A3009 RMK A01 T00591066  RH  040%=      5-min Rain = 0
KGU1 161530Z 26004KT 06/M07 A3009 RMK A01 T00611066  RH  040%=      5-min Rain = 0
KGU1 161531Z 25003KT 06/M07 A3009 RMK A01 T00611065  RH  040%=      5-min Rain = 0
KGU1 161532Z 23003KT 06/M07 A3009 RMK A01 T00621066  RH  040%=      5-min Rain = 0
KGU1 161533Z 21003KT 06/M07 A3009 RMK A01 T00631066  RH  040%=      5-min Rain = 0
KGU1 161534Z 21006KT 06/M07 A3009 RMK A01 T00631065  RH  040%=      5-min Rain = 0
KGU1 161535Z 21006KT 06/M06 A3009 RMK A01 T00611063  RH  041%=      5-min Rain = 0
KGU1 161536Z 21006KT 06/M06 A3009 RMK A01 T00601063  RH  041%=      5-min Rain = 0
KGU1 161537Z 21008KT 06/M06 A3009 RMK A01 T00591064  RH  041%=      5-min Rain = 0
KGU1 161538Z 21008KT 06/M07 A3009 RMK A01 T00571065  RH  041%=      5-min Rain = 0
KGU1 161539Z 21008KT 06/M07 A3009 RMK A01 T00561065  RH  042%=      5-min Rain = 0
KGU1 161540Z 22008KT 06/M06 A3009 RMK A01 T00551064  RH  042%=      5-min Rain = 0
KGU1 161541Z 21009KT 05/M07 A3009 RMK A01 T00541065  RH  042%=      5-min Rain = 0
KGU1 161542Z 21009KT 05/M07 A3009 RMK A01 T00541065  RH  042%=      5-min Rain = 0
KGU1 161543Z 21009KT 05/M07 A3009 RMK A01 T00531065  RH  043%=      5-min Rain = 0
KGU1 161544Z 21009KT 05/M07 A3009 RMK A01 T00531065  RH  043%=      5-min Rain = 0
KGU1 161545Z 21010KT 05/M07 A3009 RMK A01 T00531065  RH  042%=      5-min Rain = 0
KGU1 161546Z 21008KT 05/M07 A3009 RMK A01 T00541065  RH  042%=      5-min Rain = 0
KGU1 161547Z 22007KT 05/M07 A3009 RMK A01 T00541065  RH  042%=      5-min Rain = 0
KGU1 161548Z 21009KT 05/M07 A3009 RMK A01 T00541065  RH  043%=      5-min Rain = 0
KGU1 161549Z 22008KT 05/M07 A3009 RMK A01 T00531065  RH  043%=      5-min Rain = 0
KGU1 161550Z 22009KT 05/M07 A3009 RMK A01 T00521065  RH  043%=      5-min Rain = 0
KGU1 161551Z 22008KT 05/M07 A3009 RMK A01 T00511065  RH  043%=      5-min Rain = 0
KGU1 161552Z 22008KT 05/M06 A3009 RMK A01 T00501064  RH  044%=      5-min Rain = 0
KGU1 161553Z 23007KT 05/M07 A3009 RMK A01 T00491065  RH  044%=      5-min Rain = 0
KGU1 161554Z 23005KT 05/M06 A3009 RMK A01 T00491063  RH  045%=      5-min Rain = 0
KGU1 161555Z 23006KT 05/M06 A3009 RMK A01 T00491063  RH  045%=      5-min Rain = 0
KGU1 161556Z 23004KT 05/M06 A3009 RMK A01 T00491060  RH  046%=      5-min Rain = 0
KGU1 161557Z 22008KT 05/M06 A3009 RMK A01 T00501061  RH  045%=      5-min Rain = 0
KGU1 161558Z 22006KT 05/M06 A3008 RMK A01 T00511059  RH  045%=      5-min Rain = 0
KGU1 161559Z 22006KT 05/M06 A3008 RMK A01 T00531061  RH  044%=      5-min Rain = 0
KGU1 161600Z 22007KT 05/M06 A3008 RMK A01 T00541062  RH  043%=      5-min Rain = 0
KGU1 161601Z 21006KT 06/M06 A3008 RMK A01 T00561062  RH  043%=      5-min Rain = 0
KGU1 161602Z 21006KT 06/M06 A3008 RMK A01 T00581063  RH  042%=      5-min Rain = 0
KGU1 161603Z 22006KT 06/M07 A3008 RMK A01 T00591065  RH  041%=      5-min Rain = 0
KGU1 161604Z 21007KT 06/M06 A3008 RMK A01 T00611064  RH  041%=      5-min Rain = 0
KGU1 161605Z 20007KT 06/M06 A3008 RMK A01 T00621064  RH  040%=      5-min Rain = 0
KGU1 161606Z 20007KT 06/M06 A3008 RMK A01 T00621064  RH  040%=      5-min Rain = 0
KGU1 161607Z 20009G14KT 06/M06 A3008 RMK A01 T00621063  RH  041%=      5-min Rain = 0
KGU1 161608Z 20012KT 06/M07 A3008 RMK A01 T00611065  RH  040%=      5-min Rain = 0
KGU1 161609Z 19012KT 06/M07 A3008 RMK A01 T00611066  RH  040%=      5-min Rain = 0
KGU1 161610Z 20010KT 06/M06 A3008 RMK A01 T00611063  RH  041%=      5-min Rain = 0
KGU1 161611Z 20009KT 06/M06 A3008 RMK A01 T00611064  RH  041%=      5-min Rain = 0
KGU1 161612Z 20010KT 06/M06 A3008 RMK A01 T00631063  RH  040%=      5-min Rain = 0
KGU1 161613Z 19010KT 06/M06 A3008 RMK A01 T00641063  RH  040%=      5-min Rain = 0
KGU1 161614Z 20009KT 07/M07 A3008 RMK A01 T00661065  RH  039%=      5-min Rain = 0
KGU1 161615Z 20011KT 07/M07 A3008 RMK A01 T00681070  RH  037%=      5-min Rain = 0
KGU1 161616Z 20011KT 07/M07 A3008 RMK A01 T00691067  RH  038%=      5-min Rain = 0
KGU1 161617Z 20010KT 07/M07 A3008 RMK A01 T00691066  RH  038%=      5-min Rain = 0
KGU1 161618Z 20011KT 07/M07 A3008 RMK A01 T00691067  RH  038%=      5-min Rain = 0
KGU1 161619Z 19011KT 07/M06 A3008 RMK A01 T00691064  RH  039%=      5-min Rain = 0
KGU1 161620Z 20011KT 07/M06 A3008 RMK A01 T00711062  RH  039%=      5-min Rain = 0
KGU1 161621Z 19013KT 07/M07 A3008 RMK A01 T00721065  RH  038%=      5-min Rain = 0
KGU1 161622Z 19012KT 07/M06 A3008 RMK A01 T00701060  RH  039%=      5-min Rain = 0
KGU1 161623Z 19010KT 07/M06 A3008 RMK A01 T00671057  RH  041%=      5-min Rain = 0
KGU1 161624Z 20012KT 07/M06 A3008 RMK A01 T00661058  RH  041%=      5-min Rain = 0
KGU1 161625Z 21009KT 07/M06 A3008 RMK A01 T00661059  RH  041%=      5-min Rain = 0
KGU1 161626Z 20011G19KT 07/M06 A3008 RMK A01 T00661059  RH  041%=      5-min Rain = 0
KGU1 161627Z 20014KT 07/M06 A3008 RMK A01 T00661063  RH  040%=      5-min Rain = 0
KGU1 161628Z 20010KT 07/M06 A3008 RMK A01 T00651061  RH  041%=      5-min Rain = 0
KGU1 161629Z 22012KT 07/M06 A3008 RMK A01 T00661058  RH  041%=      5-min Rain = 0
KGU1 161630Z 21008KT 07/M06 A3008 RMK A01 T00691059  RH  040%=      5-min Rain = 0
KGU1 161631Z 23011KT 07/M06 A3008 RMK A01 T00721064  RH  038%=      5-min Rain = 0
KGU1 161632Z 22008KT 08/M06 A3008 RMK A01 T00761064  RH  037%=      5-min Rain = 0
KGU1 161633Z 22008KT 08/M07 A3008 RMK A01 T00791074  RH  033%=      5-min Rain = 0
KGU1 161634Z 22006G11KT 08/M07 A3008 RMK A01 T00821069  RH  034%=      5-min Rain = 0
KGU1 161635Z 23005KT 08/M07 A3008 RMK A01 T00821069  RH  034%=      5-min Rain = 0
KGU1 161636Z 22010KT 08/M07 A3008 RMK A01 T00821074  RH  033%=      5-min Rain = 0
KGU1 161637Z 23004KT 09/M08 A3008 RMK A01 T00851075  RH  032%=      5-min Rain = 0
KGU1 161638Z 22001KT 09/M07 A3008 RMK A01 T00871073  RH  032%=      5-min Rain = 0
KGU1 161639Z 21005KT 09/M07 A3008 RMK A01 T00881070  RH  032%=      5-min Rain = 0
KGU1 161640Z 21009KT 09/M07 A3008 RMK A01 T00891067  RH  033%=      5-min Rain = 0
KGU1 161641Z 20010KT 09/M07 A3008 RMK A01 T00891074  RH  031%=      5-min Rain = 0
KGU1 161642Z 18006KT 09/M08 A3008 RMK A01 T00891078  RH  030%=      5-min Rain = 0
KGU1 161643Z 33002KT 09/M08 A3008 RMK A01 T00891082  RH  029%=      5-min Rain = 0
KGU1 161644Z 29002KT 09/M08 A3008 RMK A01 T00891084  RH  029%=      5-min Rain = 0
KGU1 161645Z 24001KT 09/M08 A3008 RMK A01 T00901083  RH  029%=      5-min Rain = 0
KGU1 161646Z 19000KT 09/M08 A3008 RMK A01 T00921082  RH  029%=      5-min Rain = 0
KGU1 161647Z 19001KT 10/M08 A3008 RMK A01 T00951078  RH  029%=      5-min Rain = 0
KGU1 161648Z 20002KT 10/M07 A3008 RMK A01 T00971071  RH  030%=      5-min Rain = 0
KGU1 161649Z 21008KT 10/M07 A3008 RMK A01 T00981073  RH  030%=      5-min Rain = 0
KGU1 161650Z 21005KT 10/M07 A3008 RMK A01 T00981073  RH  030%=      5-min Rain = 0
KGU1 161651Z 20007KT 10/M07 A3008 RMK A01 T00981065  RH  032%=      5-min Rain = 0
KGU1 161652Z 19007KT 10/M07 A3008 RMK A01 T00971071  RH  030%=      5-min Rain = 0
KGU1 161653Z 17006KT 10/M07 A3008 RMK A01 T00961066  RH  032%=      5-min Rain = 0
KGU1 161654Z 20007KT 10/M07 A3007 RMK A01 T00981067  RH  031%=      5-min Rain = 0
KGU1 161655Z 16008KT 10/M07 A3007 RMK A01 T01021066  RH  031%=      5-min Rain = 0
KGU1 161656Z 16007KT 10/M07 A3007 RMK A01 T01021068  RH  030%=      5-min Rain = 0
KGU1 161657Z 21005KT 10/M07 A3007 RMK A01 T01021072  RH  029%=      5-min Rain = 0
KGU1 161658Z 25005KT 10/M08 A3007 RMK A01 T01031077  RH  028%=      5-min Rain = 0
KGU1 161659Z 23003KT 10/M08 A3007 RMK A01 T01031076  RH  028%=      5-min Rain = 0
KGU1 161700Z 20005G10KT 11/M07 A3007 RMK A01 T01051069  RH  029%=      5-min Rain = 0
KGU1 161701Z 18005KT 11/M07 A3007 RMK A01 T01061067  RH  029%=      5-min Rain = 0
KGU1 161702Z 20009G14KT 11/M06 A3007 RMK A01 T01081064  RH  030%=      5-min Rain = 0
KGU1 161703Z 25004KT 11/M08 A3007 RMK A01 T01091076  RH  027%=      5-min Rain = 0
KGU1 161704Z 24008KT 11/M08 A3007 RMK A01 T01111082  RH  025%=      5-min Rain = 0
KGU1 161705Z 20010KT 11/M07 A3007 RMK A01 T01111071  RH  028%=      5-min Rain = 0
KGU1 161706Z 21012KT 11/M07 A3007 RMK A01 T01081070  RH  028%=      5-min Rain = 0
KGU1 161707Z 23010KT 11/M07 A3007 RMK A01 T01061071  RH  029%=      5-min Rain = 0
KGU1 161708Z 20010KT 10/M07 A3007 RMK A01 T01041073  RH  028%=      5-min Rain = 0
KGU1 161709Z 19011KT 10/M07 A3007 RMK A01 T01041073  RH  028%=      5-min Rain = 0
KGU1 161710Z 24009KT 11/M08 A3007 RMK A01 T01071075  RH  027%=      5-min Rain = 0
KGU1 161711Z 26002KT 11/M08 A3007 RMK A01 T01101078  RH  026%=      5-min Rain = 0
KGU1 161712Z 29004KT 11/M08 A3007 RMK A01 T01111077  RH  026%=      5-min Rain = 0
KGU1 161713Z 19004G9KT 11/M08 A3007 RMK A01 T01131081  RH  025%=      5-min Rain = 0
KGU1 161714Z 14005KT 11/M07 A3007 RMK A01 T01131070  RH  027%=      5-min Rain = 0
KGU1 161715Z 11005KT 11/M06 A3007 RMK A01 T01131061  RH  029%=      5-min Rain = 0
KGU1 161716Z 35005KT 11/M07 A3006 RMK A01 T01131066  RH  028%=      5-min Rain = 0
KGU1 161717Z 31002KT 11/M08 A3007 RMK A01 T01101075  RH  027%=      5-min Rain = 0
KGU1 161718Z 31002KT 11/M08 A3007 RMK A01 T01101077  RH  026%=      5-min Rain = 0
KGU1 161719Z 25002KT 11/M07 A3007 RMK A01 T01111073  RH  027%=      5-min Rain = 0
KGU1 161720Z 19004KT 11/M07 A3007 RMK A01 T01141069  RH  027%=      5-min Rain = 0
KGU1 161721Z 10003KT 12/M07 A3006 RMK A01 T01151066  RH  028%=      5-min Rain = 0
KGU1 161722Z 34006KT 11/M07 A3006 RMK A01 T01131071  RH  027%=      5-min Rain = 0
KGU1 161723Z 35004KT 11/M07 A3007 RMK A01 T01141069  RH  027%=      5-min Rain = 0
KGU1 161724Z 36007KT 12/M07 A3007 RMK A01 T01161071  RH  027%=      5-min Rain = 0
KGU1 161725Z 34008KT 12/M08 A3007 RMK A01 T01151078  RH  025%=      5-min Rain = 0
KGU1 161726Z 32008KT 12/M08 A3007 RMK A01 T01151078  RH  025%=      5-min Rain = 0
KGU1 161727Z 32009G14KT 12/M08 A3007 RMK A01 T01151079  RH  025%=      5-min Rain = 0
KGU1 161728Z 30014KT 12/M09 A3007 RMK A01 T01151088  RH  024%=      5-min Rain = 0
KGU1 161729Z 29013KT 11/M09 A3007 RMK A01 T01141093  RH  023%=      5-min Rain = 0
KGU1 161730Z 30009G15KT 11/M09 A3006 RMK A01 T01141089  RH  023%=      5-min Rain = 0
KGU1 161731Z 31012KT 12/M08 A3006 RMK A01 T01151084  RH  024%=      5-min Rain = 0
KGU1 161732Z 31015KT 12/M08 A3007 RMK A01 T01161082  RH  024%=      5-min Rain = 0
KGU1 161733Z 30014KT 11/M08 A3007 RMK A01 T01141084  RH  024%=      5-min Rain = 0
KGU1 161734Z 30013KT 11/M08 A3007 RMK A01 T01131084  RH  025%=      5-min Rain = 0
KGU1 161735Z 29014KT 11/M08 A3006 RMK A01 T01131083  RH  025%=      5-min Rain = 0
KGU1 161736Z 29017KT 11/M08 A3006 RMK A01 T01141082  RH  025%=      5-min Rain = 0
KGU1 161737Z 30012KT 11/M08 A3007 RMK A01 T01131083  RH  025%=      5-min Rain = 0
KGU1 161738Z 29010KT 11/M08 A3006 RMK A01 T01131083  RH  025%=      5-min Rain = 0
KGU1 161739Z 30007KT 11/M08 A3006 RMK A01 T01121080  RH  026%=      5-min Rain = 0
KGU1 161740Z 30014KT 11/M08 A3006 RMK A01 T01141079  RH  025%=      5-min Rain = 0
KGU1 161741Z 30016KT 12/M08 A3006 RMK A01 T01151077  RH  026%=      5-min Rain = 0
KGU1 161742Z 30013KT 12/M08 A3006 RMK A01 T01151081  RH  025%=      5-min Rain = 0
KGU1 161743Z 30012KT 11/M08 A3006 RMK A01 T01141080  RH  025%=      5-min Rain = 0
KGU1 161744Z 31014G19KT 11/M08 A3006 RMK A01 T01141082  RH  025%=      5-min Rain = 0
KGU1 161745Z 29018KT 11/M08 A3006 RMK A01 T01141079  RH  025%=      5-min Rain = 0
KGU1 161746Z 29013KT 11/M08 A3006 RMK A01 T01131076  RH  026%=      5-min Rain = 0
KGU1 161747Z 30013KT 11/M08 A3006 RMK A01 T01141081  RH  025%=      5-min Rain = 0
KGU1 161748Z 29016KT 12/M08 A3006 RMK A01 T01151081  RH  025%=      5-min Rain = 0
KGU1 161749Z 30016KT 11/M09 A3006 RMK A01 T01141086  RH  024%=      5-min Rain = 0
KGU1 161750Z 28011KT 11/M08 A3006 RMK A01 T01121084  RH  025%=      5-min Rain = 0
KGU1 161751Z 28008G14KT 11/M08 A3006 RMK A01 T01121077  RH  026%=      5-min Rain = 0
KGU1 161752Z 29013G21KT 12/M08 A3006 RMK A01 T01161075  RH  026%=      5-min Rain = 0
KGU1 161753Z 29016KT 12/M09 A3006 RMK A01 T01161085  RH  024%=      5-min Rain = 0
KGU1 161754Z 29013KT 12/M08 A3006 RMK A01 T01151082  RH  025%=      5-min Rain = 0
KGU1 161755Z 30012KT 11/M08 A3006 RMK A01 T01141083  RH  025%=      5-min Rain = 0
KGU1 161756Z 30011KT 12/M07 A3006 RMK A01 T01151073  RH  026%=      5-min Rain = 0
KGU1 161757Z 29013KT 12/M08 A3006 RMK A01 T01171080  RH  025%=      5-min Rain = 0
KGU1 161758Z 29016KT 12/M09 A3006 RMK A01 T01181085  RH  024%=      5-min Rain = 0
KGU1 161759Z 30013G20KT 12/M09 A3006 RMK A01 T01181087  RH  023%=      5-min Rain = 0
KGU1 161800Z 31015KT 12/M09 A3006 RMK A01 T01171092  RH  023%=      5-min Rain = 0
KGU1 161801Z 31017G22KT 12/M09 A3006 RMK A01 T01151093  RH  023%=      5-min Rain = 0
KGU1 161802Z 29011G17KT 11/M09 A3006 RMK A01 T01141093  RH  023%=      5-min Rain = 0
KGU1 161803Z 30009KT 11/M08 A3006 RMK A01 T01131084  RH  025%=      5-min Rain = 0
KGU1 161804Z 29013KT 11/M09 A3006 RMK A01 T01141086  RH  024%=      5-min Rain = 0
KGU1 161805Z 29014KT 12/M09 A3006 RMK A01 T01151089  RH  023%=      5-min Rain = 0
KGU1 161806Z 28012G17KT 12/M09 A3006 RMK A01 T01161085  RH  024%=      5-min Rain = 0
KGU1 161807Z 29014KT 12/M08 A3006 RMK A01 T01181082  RH  024%=      5-min Rain = 0
KGU1 161808Z 30015KT 12/M08 A3006 RMK A01 T01191083  RH  024%=      5-min Rain = 0
KGU1 161809Z 29017KT 12/M09 A3006 RMK A01 T01191088  RH  023%=      5-min Rain = 0
KGU1 161810Z 29014KT 12/M08 A3006 RMK A01 T01181084  RH  024%=      5-min Rain = 0
KGU1 161811Z 29013KT 12/M08 A3006 RMK A01 T01181081  RH  024%=      5-min Rain = 0
KGU1 161812Z 30015KT 12/M08 A3005 RMK A01 T01191081  RH  024%=      5-min Rain = 0
KGU1 161813Z 29014G19KT 12/M09 A3005 RMK A01 T01181088  RH  023%=      5-min Rain = 0
KGU1 161814Z 30014KT 12/M09 A3005 RMK A01 T01171085  RH  024%=      5-min Rain = 0
KGU1 161815Z 32014KT 12/M09 A3005 RMK A01 T01161088  RH  023%=      5-min Rain = 0
KGU1 161816Z 30014G19KT 12/M08 A3005 RMK A01 T01181083  RH  024%=      5-min Rain = 0
KGU1 161817Z 30014KT 12/M09 A3005 RMK A01 T01181088  RH  023%=      5-min Rain = 0
KGU1 161818Z 30013KT 12/M09 A3005 RMK A01 T01201088  RH  023%=      5-min Rain = 0
KGU1 161819Z 30016KT 12/M09 A3005 RMK A01 T01191093  RH  022%=      5-min Rain = 0
KGU1 161820Z 30016KT 12/M09 A3005 RMK A01 T01171092  RH  022%=      5-min Rain = 0
KGU1 161821Z 29010KT 12/M09 A3005 RMK A01 T01191093  RH  022%=      5-min Rain = 0
KGU1 161822Z 29012KT 12/M09 A3005 RMK A01 T01181093  RH  022%=      5-min Rain = 0
KGU1 161823Z 30014KT 12/M09 A3005 RMK A01 T01181090  RH  023%=      5-min Rain = 0
KGU1 161824Z 29012KT 12/M09 A3005 RMK A01 T01161089  RH  023%=      5-min Rain = 0
KGU1 161825Z 30010KT 12/M09 A3005 RMK A01 T01161090  RH  023%=      5-min Rain = 0
KGU1 161826Z 29009KT 12/M09 A3005 RMK A01 T01181086  RH  023%=      5-min Rain = 0
KGU1 161827Z 30009KT 12/M09 A3005 RMK A01 T01171087  RH  023%=      5-min Rain = 0
KGU1 161828Z 30013KT 12/M09 A3005 RMK A01 T01201093  RH  022%=      5-min Rain = 0
KGU1 161829Z 30011KT 12/M09 A3005 RMK A01 T01191091  RH  022%=      5-min Rain = 0
KGU1 161830Z 31008KT 12/M09 A3005 RMK A01 T01181094  RH  022%=      5-min Rain = 0
KGU1 161831Z 28008KT 12/M09 A3004 RMK A01 T01181085  RH  024%=      5-min Rain = 0
KGU1 161832Z 32012KT 12/M09 A3005 RMK A01 T01191091  RH  022%=      5-min Rain = 0
KGU1 161833Z 32011KT 12/M10 A3005 RMK A01 T01171098  RH  021%=      5-min Rain = 0
KGU1 161834Z 30009KT 12/M10 A3004 RMK A01 T01151098  RH  022%=      5-min Rain = 0
KGU1 161835Z 30014KT 12/M10 A3004 RMK A01 T01171095  RH  022%=      5-min Rain = 0
KGU1 161836Z 30010KT 12/M10 A3005 RMK A01 T01191100  RH  021%=      5-min Rain = 0
KGU1 161837Z 29007KT 12/M10 A3004 RMK A01 T01171101  RH  021%=      5-min Rain = 0
KGU1 161838Z 32008KT 12/M10 A3004 RMK A01 T01171100  RH  021%=      5-min Rain = 0
KGU1 161839Z 29007KT 12/M09 A3004 RMK A01 T01171092  RH  023%=      5-min Rain = 0
KGU1 161840Z 30010KT 12/M09 A3004 RMK A01 T01201093  RH  022%=      5-min Rain = 0
KGU1 161841Z 30008KT 12/M10 A3004 RMK A01 T01201101  RH  021%=      5-min Rain = 0
KGU1 161842Z 30009KT 12/M10 A3003 RMK A01 T01191100  RH  021%=      5-min Rain = 0
KGU1 161843Z 31013KT 12/M10 A3004 RMK A01 T01221097  RH  021%=      5-min Rain = 0
KGU1 161844Z 32009G14KT 12/M10 A3004 RMK A01 T01201103  RH  020%=      5-min Rain = 0
KGU1 161845Z 31006KT 12/M10 A3003 RMK A01 T01201099  RH  021%=      5-min Rain = 0
KGU1 161846Z 28006KT 12/M10 A3003 RMK A01 T01211097  RH  021%=      5-min Rain = 0
KGU1 161847Z 30013KT 12/M09 A3003 RMK A01 T01241093  RH  021%=      5-min Rain = 0
KGU1 161848Z 31011KT 12/M10 A3003 RMK A01 T01231099  RH  020%=      5-min Rain = 0
KGU1 161849Z 32012KT 12/M11 A3003 RMK A01 T01211106  RH  020%=      5-min Rain = 0
KGU1 161850Z 33012KT 12/M10 A3003 RMK A01 T01201102  RH  020%=      5-min Rain = 0
KGU1 161851Z 30010KT 12/M10 A3003 RMK A01 T01201098  RH  021%=      5-min Rain = 0
KGU1 161852Z 30008KT 12/M10 A3003 RMK A01 T01201103  RH  020%=      5-min Rain = 0
KGU1 161853Z 31011KT 12/M10 A3003 RMK A01 T01201103  RH  020%=      5-min Rain = 0
KGU1 161854Z 33009KT 12/M10 A3003 RMK A01 T01211099  RH  021%=      5-min Rain = 0
KGU1 161855Z 31012KT 12/M09 A3003 RMK A01 T01221094  RH  022%=      5-min Rain = 0
KGU1 161856Z 31017KT 12/M10 A3003 RMK A01 T01241102  RH  020%=      5-min Rain = 0
KGU1 161857Z 31015KT 12/M11 A3003 RMK A01 T01201112  RH  019%=      5-min Rain = 0
KGU1 161858Z 30008KT 12/M11 A3003 RMK A01 T01191107  RH  020%=      5-min Rain = 0
KGU1 161859Z 31011KT 12/M11 A3003 RMK A01 T01201106  RH  020%=      5-min Rain = 0
KGU1 161900Z 31012KT 12/M10 A3003 RMK A01 T01191102  RH  020%=      5-min Rain = 0
KGU1 161901Z 31013KT 12/M10 A3003 RMK A01 T01191102  RH  021%=      5-min Rain = 0
KGU1 161902Z 30010KT 12/M10 A3003 RMK A01 T01171103  RH  021%=      5-min Rain = 0
KGU1 161903Z 31009KT 12/M10 A3003 RMK A01 T01191100  RH  021%=      5-min Rain = 0
KGU1 161904Z 31009G14KT 12/M10 A3003 RMK A01 T01191099  RH  021%=      5-min Rain = 0
KGU1 161905Z 30012KT 12/M09 A3003 RMK A01 T01201094  RH  022%=      5-min Rain = 0
KGU1 161906Z 31012KT 12/M10 A3003 RMK A01 T01221096  RH  021%=      5-min Rain = 0
KGU1 161907Z 30013G18KT 12/M10 A3003 RMK A01 T01211101  RH  020%=      5-min Rain = 0
KGU1 161908Z 31011KT 12/M11 A3003 RMK A01 T01171106  RH  020%=      5-min Rain = 0
KGU1 161909Z 31012KT 12/M09 A3003 RMK A01 T01191094  RH  022%=      5-min Rain = 0
KGU1 161910Z 32012KT 12/M10 A3003 RMK A01 T01201101  RH  021%=      5-min Rain = 0
KGU1 161911Z 30013G18KT 12/M10 A3002 RMK A01 T01201099  RH  021%=      5-min Rain = 0
KGU1 161912Z 30014KT 12/M11 A3002 RMK A01 T01201109  RH  019%=      5-min Rain = 0
KGU1 161913Z 31013KT 12/M10 A3003 RMK A01 T01201103  RH  020%=      5-min Rain = 0
KGU1 161914Z 30008G14KT 12/M10 A3003 RMK A01 T01181102  RH  021%=      5-min Rain = 0
KGU1 161915Z 31010KT 12/M10 A3002 RMK A01 T01201099  RH  021%=      5-min Rain = 0
KGU1 161916Z 31014KT 12/M10 A3002 RMK A01 T01231101  RH  020%=      5-min Rain = 0
KGU1 161917Z 31012KT 12/M10 A3002 RMK A01 T01231102  RH  020%=      5-min Rain = 0
KGU1 161918Z 30015KT 12/M10 A3002 RMK A01 T01241099  RH  020%=      5-min Rain = 0
KGU1 161919Z 29011KT 12/M10 A3002 RMK A01 T01221103  RH  020%=      5-min Rain = 0
KGU1 161920Z 30011KT 12/M10 A3002 RMK A01 T01211098  RH  021%=      5-min Rain = 0
KGU1 161921Z 31013KT 12/M10 A3002 RMK A01 T01211100  RH  021%=      5-min Rain = 0
KGU1 161922Z 32013G21KT 12/M10 A3002 RMK A01 T01201096  RH  021%=      5-min Rain = 0
KGU1 161923Z 32016G21KT 12/M10 A3002 RMK A01 T01201103  RH  020%=      5-min Rain = 0
KGU1 161924Z 32015G22KT 12/M10 A3002 RMK A01 T01171102  RH  021%=      5-min Rain = 0
KGU1 161925Z 31019KT 12/M10 A3002 RMK A01 T01171102  RH  021%=      5-min Rain = 0
KGU1 161926Z 31013G18KT 12/M10 A3002 RMK A01 T01171104  RH  021%=      5-min Rain = 0
KGU1 161927Z 31009KT 12/M10 A3002 RMK A01 T01171101  RH  021%=      5-min Rain = 0
KGU1 161928Z 32010KT 12/M10 A3002 RMK A01 T01171100  RH  021%=      5-min Rain = 0
KGU1 161929Z 31011G17KT 12/M10 A3002 RMK A01 T01211097  RH  021%=      5-min Rain = 0
KGU1 161930Z 32014G19KT 12/M10 A3002 RMK A01 T01201101  RH  021%=      5-min Rain = 0
KGU1 161931Z 29012KT 12/M10 A3002 RMK A01 T01191099  RH  021%=      5-min Rain = 0
KGU1 161932Z 30010KT 12/M10 A3002 RMK A01 T01181099  RH  021%=      5-min Rain = 0
KGU1 161933Z 30011KT 12/M10 A3002 RMK A01 T01191100  RH  021%=      5-min Rain = 0
KGU1 161934Z 31013KT 12/M10 A3002 RMK A01 T01191101  RH  021%=      5-min Rain = 0
KGU1 161935Z 32014KT 12/M10 A3002 RMK A01 T01191104  RH  020%=      5-min Rain = 0
KGU1 161936Z 32015KT 12/M11 A3002 RMK A01 T01181106  RH  020%=      5-min Rain = 0
KGU1 161937Z 31011KT 12/M10 A3002 RMK A01 T01171103  RH  021%=      5-min Rain = 0
KGU1 161938Z 30012KT 12/M10 A3002 RMK A01 T01171104  RH  020%=      5-min Rain = 0
KGU1 161939Z 32013G18KT 12/M10 A3001 RMK A01 T01181104  RH  020%=      5-min Rain = 0
KGU1 161940Z 31013KT 12/M10 A3001 RMK A01 T01201103  RH  020%=      5-min Rain = 0
KGU1 161941Z 31014G19KT 12/M10 A3001 RMK A01 T01221104  RH  020%=      5-min Rain = 0
KGU1 161942Z 32015KT 12/M10 A3001 RMK A01 T01211104  RH  020%=      5-min Rain = 0
KGU1 161943Z 33010G15KT 12/M11 A3001 RMK A01 T01191110  RH  019%=      5-min Rain = 0
KGU1 161944Z 31008KT 12/M11 A3001 RMK A01 T01181105  RH  020%=      5-min Rain = 0
KGU1 161945Z 31005KT 12/M10 A3001 RMK A01 T01211102  RH  020%=      5-min Rain = 0
KGU1 161946Z 31018G24KT 12/M10 A3001 RMK A01 T01241101  RH  020%=      5-min Rain = 0
KGU1 161947Z 32018KT 12/M10 A3001 RMK A01 T01201103  RH  020%=      5-min Rain = 0
KGU1 161948Z 32015KT 12/M10 A3001 RMK A01 T01191102  RH  021%=      5-min Rain = 0
KGU1 161949Z 31014KT 12/M10 A3001 RMK A01 T01201103  RH  020%=      5-min Rain = 0
KGU1 161950Z 29009G14KT 12/M11 A3001 RMK A01 T01201105  RH  020%=      5-min Rain = 0
KGU1 161951Z 32007KT 12/M10 A3001 RMK A01 T01201100  RH  021%=      5-min Rain = 0
KGU1 161952Z 31016G23KT 12/M10 A3001 RMK A01 T01211103  RH  020%=      5-min Rain = 0
KGU1 161953Z 32018G24KT 12/M11 A3001 RMK A01 T01181106  RH  020%=      5-min Rain = 0
KGU1 161954Z 32010KT 11/M11 A3001 RMK A01 T01141107  RH  020%=      5-min Rain = 0
KGU1 161955Z 31015G24KT 12/M10 A3001 RMK A01 T01151103  RH  021%=      5-min Rain = 0
KGU1 161956Z 31018KT 12/M10 A3001 RMK A01 T01161103  RH  021%=      5-min Rain = 0
KGU1 161957Z 31012KT 11/M11 A3001 RMK A01 T01141106  RH  021%=      5-min Rain = 0
KGU1 161958Z 31010G20KT 11/M10 A3001 RMK A01 T01141102  RH  021%=      5-min Rain = 0
KGU1 161959Z 31020KT 12/M10 A3001 RMK A01 T01151102  RH  021%=      5-min Rain = 0
KGU1 162000Z 31016KT 12/M11 A3001 RMK A01 T01151106  RH  020%=      5-min Rain = 0
KGU1 162001Z 31015KT 11/M11 A3001 RMK A01 T01131107  RH  021%=      5-min Rain = 0
KGU1 162002Z 32015KT 11/M10 A3001 RMK A01 T01111104  RH  021%=      5-min Rain = 0
KGU1 162003Z 31016G23KT 11/M10 A30 RMK A01 T01131101  RH  022%=      5-min Rain = 0
KGU1 162004Z 31020G26KT 12/M11 A30 RMK A01 T01151105  RH  021%=      5-min Rain = 0
KGU1 162005Z 31020KT 11/M11 A3001 RMK A01 T01121106  RH  021%=      5-min Rain = 0
KGU1 162006Z 31017G22KT 11/M10 A3001 RMK A01 T01111104  RH  021%=      5-min Rain = 0
KGU1 162007Z 31015KT 11/M10 A30 RMK A01 T01111102  RH  022%=      5-min Rain = 0
KGU1 162008Z 30022KT 11/M10 A30 RMK A01 T01111103  RH  021%=      5-min Rain = 0
KGU1 162009Z 30020G26KT 11/M10 A30 RMK A01 T01111101  RH  022%=      5-min Rain = 0
KGU1 162010Z 30018G23KT 11/M10 A30 RMK A01 T01111099  RH  022%=      5-min Rain = 0
KGU1 162011Z 30014KT 11/M10 A30 RMK A01 T01121096  RH  023%=      5-min Rain = 0
KGU1 162012Z 30017KT 11/M10 A30 RMK A01 T01121095  RH  023%=      5-min Rain = 0
KGU1 162013Z 29016KT 11/M09 A30 RMK A01 T01141094  RH  023%=      5-min Rain = 0
KGU1 162014Z 30015KT 12/M09 A30 RMK A01 T01151093  RH  023%=      5-min Rain = 0
KGU1 162015Z 30016KT 11/M10 A30 RMK A01 T01141095  RH  023%=      5-min Rain = 0
KGU1 162016Z 30019KT 11/M10 A30 RMK A01 T01131097  RH  022%=      5-min Rain = 0
KGU1 162017Z 30020KT 11/M10 A30 RMK A01 T01111096  RH  023%=      5-min Rain = 0
KGU1 162018Z 30020G25KT 11/M10 A30 RMK A01 T01101096  RH  023%=      5-min Rain = 0
KGU1 162019Z 29019G25KT 11/M09 A30 RMK A01 T01101094  RH  023%=      5-min Rain = 0
KGU1 162020Z 29015G20KT 11/M09 A30 RMK A01 T01101094  RH  023%=      5-min Rain = 0
KGU1 162021Z 29017G22KT 11/M09 A30 RMK A01 T01101092  RH  023%=      5-min Rain = 0
KGU1 162022Z 29017KT 11/M09 A30 RMK A01 T01111089  RH  024%=      5-min Rain = 0
KGU1 162023Z 30018KT 11/M09 A30 RMK A01 T01101086  RH  025%=      5-min Rain = 0
KGU1 162024Z 29015G21KT 11/M08 A30 RMK A01 T01101084  RH  025%=      5-min Rain = 0
KGU1 162025Z 29015G23KT 11/M08 A30 RMK A01 T01111082  RH  025%=      5-min Rain = 0
KGU1 162026Z 29018KT 11/M08 A30 RMK A01 T01131080  RH  025%=      5-min Rain = 0
KGU1 162027Z 29019G25KT 11/M08 A30 RMK A01 T01111081  RH  025%=      5-min Rain = 0
KGU1 162028Z 30018G26KT 11/M08 A30 RMK A01 T01111077  RH  026%=      5-min Rain = 0
KGU1 162029Z 30020KT 11/M08 A30 RMK A01 T01101076  RH  027%=      5-min Rain = 0
KGU1 162030Z 28015G21KT 11/M08 A2999 RMK A01 T01091076  RH  027%=      5-min Rain = 0
KGU1 162031Z 29010G15KT 11/M08 A2999 RMK A01 T01121076  RH  026%=      5-min Rain = 0
KGU1 162032Z 28013KT 12/M08 A2999 RMK A01 T01151076  RH  026%=      5-min Rain = 0
KGU1 162033Z 29016KT 12/M08 A2999 RMK A01 T01161081  RH  025%=      5-min Rain = 0
KGU1 162034Z 29016G21KT 11/M08 A2999 RMK A01 T01141077  RH  026%=      5-min Rain = 0
KGU1 162035Z 28016G21KT 11/M08 A2999 RMK A01 T01131080  RH  025%=      5-min Rain = 0
KGU1 162036Z 29013KT 11/M08 A2999 RMK A01 T01111076  RH  027%=      5-min Rain = 0
KGU1 162037Z 29015G20KT 11/M08 A2999 RMK A01 T01131075  RH  026%=      5-min Rain = 0
KGU1 162038Z 30019KT 11/M08 A2999 RMK A01 T01131075  RH  026%=      5-min Rain = 0
KGU1 162039Z 29012G17KT 11/M07 A2999 RMK A01 T01121071  RH  027%=      5-min Rain = 0
KGU1 162040Z 28014KT 11/M07 A2999 RMK A01 T01141074  RH  026%=      5-min Rain = 0
KGU1 162041Z 29012G18KT 11/M07 A2999 RMK A01 T01141073  RH  026%=      5-min Rain = 0
KGU1 162042Z 29017KT 12/M08 A2999 RMK A01 T01151076  RH  026%=      5-min Rain = 0
KGU1 162043Z 29014G19KT 11/M08 A2999 RMK A01 T01141077  RH  026%=      5-min Rain = 0
KGU1 162044Z 30014KT 11/M08 A2999 RMK A01 T01141078  RH  026%=      5-min Rain = 0
KGU1 162045Z 30018KT 11/M08 A2999 RMK A01 T01131078  RH  026%=      5-min Rain = 0
KGU1 162046Z 29015G21KT 11/M08 A2999 RMK A01 T01131075  RH  026%=      5-min Rain = 0
KGU1 162047Z 30014KT 11/M08 A2999 RMK A01 T01121076  RH  026%=      5-min Rain = 0
KGU1 162048Z 28012KT 11/M07 A2999 RMK A01 T01121072  RH  027%=      5-min Rain = 0
KGU1 162049Z 29011G16KT 12/M07 A2999 RMK A01 T01151074  RH  026%=      5-min Rain = 0
KGU1 162050Z 28013KT 12/M08 A2999 RMK A01 T01171076  RH  025%=      5-min Rain = 0
KGU1 162051Z 29012G18KT 12/M08 A2999 RMK A01 T01181075  RH  026%=      5-min Rain = 0
KGU1 162052Z 28015KT 12/M08 A2999 RMK A01 T01171075  RH  026%=      5-min Rain = 0
KGU1 162053Z 27017KT 12/M08 A2999 RMK A01 T01151078  RH  025%=      5-min Rain = 0
KGU1 162054Z 28012KT 11/M08 A2999 RMK A01 T01141076  RH  026%=      5-min Rain = 0
KGU1 162055Z 29016KT 12/M07 A2999 RMK A01 T01161072  RH  026%=      5-min Rain = 0
KGU1 162056Z 29013KT 12/M07 A2999 RMK A01 T01161072  RH  026%=      5-min Rain = 0
KGU1 162057Z 29016G21KT 12/M07 A2999 RMK A01 T01151073  RH  026%=      5-min Rain = 0
KGU1 162058Z 29016G21KT 12/M07 A2999 RMK A01 T01151073  RH  026%=      5-min Rain = 0
KGU1 162059Z 29012KT 12/M07 A2999 RMK A01 T01161070  RH  027%=      5-min Rain = 0
KGU1 162100Z 28017KT 12/M07 A2999 RMK A01 T01171072  RH  026%=      5-min Rain = 0
KGU1 162101Z 28012G17KT 12/M07 A2999 RMK A01 T01171070  RH  027%=      5-min Rain = 0
KGU1 162102Z 28014G19KT 12/M07 A2999 RMK A01 T01171073  RH  026%=      5-min Rain = 0
KGU1 162103Z 29014KT 12/M07 A2999 RMK A01 T01161074  RH  026%=      5-min Rain = 0
KGU1 162104Z 29015KT 12/M07 A2999 RMK A01 T01161073  RH  026%=      5-min Rain = 0
KGU1 162105Z 28015G22KT 12/M08 A2999 RMK A01 T01161075  RH  026%=      5-min Rain = 0
KGU1 162106Z 29018KT 12/M08 A2999 RMK A01 T01151075  RH  026%=      5-min Rain = 0
KGU1 162107Z 30014KT 11/M08 A2999 RMK A01 T01141075  RH  026%=      5-min Rain = 0
KGU1 162108Z 30014KT 11/M07 A2999 RMK A01 T01141072  RH  027%=      5-min Rain = 0
KGU1 162109Z 29013KT 11/M07 A2999 RMK A01 T01141074  RH  026%=      5-min Rain = 0
KGU1 162110Z 29016G21KT 12/M08 A2999 RMK A01 T01161075  RH  026%=      5-min Rain = 0
KGU1 162111Z 29017G22KT 11/M08 A2999 RMK A01 T01141075  RH  026%=      5-min Rain = 0
KGU1 162112Z 29018G24KT 11/M08 A2999 RMK A01 T01141075  RH  026%=      5-min Rain = 0
KGU1 162113Z 29021KT 11/M08 A2999 RMK A01 T01121077  RH  026%=      5-min Rain = 0
KGU1 162114Z 28015KT 11/M07 A2999 RMK A01 T01131073  RH  027%=      5-min Rain = 0
KGU1 162115Z 27015KT 11/M07 A2999 RMK A01 T01141073  RH  027%=      5-min Rain = 0
KGU1 162116Z 29016KT 12/M07 A2999 RMK A01 T01151074  RH  026%=      5-min Rain = 0
KGU1 162117Z 29016G22KT 12/M08 A2999 RMK A01 T01161076  RH  026%=      5-min Rain = 0
KGU1 162118Z 28015G20KT 11/M08 A2999 RMK A01 T01141077  RH  026%=      5-min Rain = 0
KGU1 162119Z 28014G20KT 11/M07 A2999 RMK A01 T01141071  RH  027%=      5-min Rain = 0
KGU1 162120Z 27010KT 12/M07 A2999 RMK A01 T01171071  RH  026%=      5-min Rain = 0
KGU1 162121Z 27010KT 12/M07 A2999 RMK A01 T01191073  RH  026%=      5-min Rain = 0
KGU1 162122Z 28012G19KT 12/M07 A2999 RMK A01 T01221070  RH  026%=      5-min Rain = 0
KGU1 162123Z 28016KT 12/M07 A2999 RMK A01 T01201072  RH  026%=      5-min Rain = 0
KGU1 162124Z 28012KT 12/M07 A2999 RMK A01 T01181072  RH  026%=      5-min Rain = 0
KGU1 162125Z 27010G16KT 12/M07 A2999 RMK A01 T01191069  RH  027%=      5-min Rain = 0
KGU1 162126Z 28011G16KT 12/M07 A2999 RMK A01 T01191070  RH  026%=      5-min Rain = 0
KGU1 162127Z 27014KT 12/M07 A2999 RMK A01 T01201072  RH  026%=      5-min Rain = 0
KGU1 162128Z 29018KT 12/M07 A2999 RMK A01 T01191072  RH  026%=      5-min Rain = 0
KGU1 162129Z 28016G23KT 12/M07 A2999 RMK A01 T01181073  RH  026%=      5-min Rain = 0
KGU1 162130Z 28018KT 12/M07 A2999 RMK A01 T01161074  RH  026%=      5-min Rain = 0
KGU1 162131Z 28013G18KT 12/M07 A2999 RMK A01 T01161073  RH  026%=      5-min Rain = 0
KGU1 162132Z 30016G21KT 12/M08 A2999 RMK A01 T01181075  RH  026%=      5-min Rain = 0
KGU1 162133Z 28016G22KT 12/M08 A2999 RMK A01 T01181075  RH  025%=      5-min Rain = 0
KGU1 162134Z 29020KT 12/M08 A2999 RMK A01 T01161079  RH  025%=      5-min Rain = 0
KGU1 162135Z 28018KT 12/M08 A2999 RMK A01 T01151080  RH  025%=      5-min Rain = 0
KGU1 162136Z 29016KT 12/M08 A2999 RMK A01 T01151080  RH  025%=      5-min Rain = 0
KGU1 162137Z 28015KT 12/M08 A2999 RMK A01 T01161076  RH  025%=      5-min Rain = 0
KGU1 162138Z 28014KT 12/M08 A2999 RMK A01 T01181075  RH  026%=      5-min Rain = 0
KGU1 162139Z 28019G25KT 12/M08 A2999 RMK A01 T01191079  RH  025%=      5-min Rain = 0
KGU1 162140Z 29019KT 12/M08 A2999 RMK A01 T01171082  RH  024%=      5-min Rain = 0
KGU1 162141Z 28016G21KT 12/M08 A2999 RMK A01 T01171081  RH  025%=      5-min Rain = 0
KGU1 162142Z 27014KT 12/M08 A2998 RMK A01 T01171080  RH  025%=      5-min Rain = 0
KGU1 162143Z 28014G19KT 12/M08 A2998 RMK A01 T01171078  RH  025%=      5-min Rain = 0
KGU1 162144Z 28017KT 12/M08 A2998 RMK A01 T01181077  RH  025%=      5-min Rain = 0
KGU1 162145Z 28012KT 12/M08 A2999 RMK A01 T01181077  RH  025%=      5-min Rain = 0
KGU1 162146Z 29012G21KT 12/M07 A2998 RMK A01 T01191074  RH  025%=      5-min Rain = 0
KGU1 162147Z 28017KT 12/M08 A2998 RMK A01 T01201078  RH  025%=      5-min Rain = 0
KGU1 162148Z 29018G23KT 12/M08 A2998 RMK A01 T01201078  RH  025%=      5-min Rain = 0
KGU1 162149Z 29017KT 12/M08 A2998 RMK A01 T01181077  RH  025%=      5-min Rain = 0
KGU1 162150Z 28020KT 12/M08 A2998 RMK A01 T01191076  RH  025%=      5-min Rain = 0
KGU1 162151Z 28017KT 12/M08 A2998 RMK A01 T01181077  RH  025%=      5-min Rain = 0
KGU1 162152Z 28016KT 12/M08 A2998 RMK A01 T01171077  RH  025%=      5-min Rain = 0
KGU1 162153Z 29019KT 12/M08 A2998 RMK A01 T01171080  RH  025%=      5-min Rain = 0
KGU1 162154Z 28018KT 12/M08 A2998 RMK A01 T01161080  RH  025%=      5-min Rain = 0
KGU1 162155Z 27018G24KT 12/M08 A2998 RMK A01 T01151083  RH  024%=      5-min Rain = 0
KGU1 162156Z 27016KT 12/M08 A2998 RMK A01 T01151083  RH  024%=      5-min Rain = 0
KGU1 162157Z 27016KT 12/M08 A2998 RMK A01 T01151082  RH  025%=      5-min Rain = 0
KGU1 162158Z 27014KT 12/M08 A2998 RMK A01 T01151082  RH  025%=      5-min Rain = 0
KGU1 162159Z 27016G21KT 12/M08 A2998 RMK A01 T01151084  RH  024%=      5-min Rain = 0
KGU1 162200Z 28015G23KT 11/M08 A2998 RMK A01 T01141082  RH  025%=      5-min Rain = 0
KGU1 162201Z 28019KT 11/M09 A2998 RMK A01 T01121091  RH  024%=      5-min Rain = 0
KGU1 162202Z 29018G23KT 11/M09 A2998 RMK A01 T01091088  RH  024%=      5-min Rain = 0
KGU1 162203Z 27017KT 11/M09 A2998 RMK A01 T01071086  RH  025%=      5-min Rain = 0
KGU1 162204Z 28015KT 11/M09 A2998 RMK A01 T01061088  RH  025%=      5-min Rain = 0
KGU1 162205Z 28013KT 11/M08 A2998 RMK A01 T01071084  RH  026%=      5-min Rain = 0
KGU1 162206Z 27013KT 11/M08 A2998 RMK A01 T01091083  RH  025%=      5-min Rain = 0
KGU1 162207Z 28011G16KT 11/M08 A2997 RMK A01 T01111080  RH  026%=      5-min Rain = 0
KGU1 162208Z 29017KT 11/M08 A2998 RMK A01 T01131081  RH  025%=      5-min Rain = 0
KGU1 162209Z 28017KT 11/M08 A2998 RMK A01 T01131079  RH  026%=      5-min Rain = 0
KGU1 162210Z 29016G22KT 11/M08 A2997 RMK A01 T01141077  RH  026%=      5-min Rain = 0
KGU1 162211Z 30016G24KT 11/M08 A2998 RMK A01 T01141076  RH  026%=      5-min Rain = 0
KGU1 162212Z 29019G25KT 11/M08 A2998 RMK A01 T01141076  RH  026%=      5-min Rain = 0
KGU1 162213Z 29019KT 11/M08 A2997 RMK A01 T01141077  RH  026%=      5-min Rain = 0
KGU1 162214Z 29020G25KT 11/M08 A2998 RMK A01 T01141078  RH  026%=      5-min Rain = 0
KGU1 162215Z 28017G23KT 11/M08 A2998 RMK A01 T01131078  RH  026%=      5-min Rain = 0
KGU1 162216Z 29015KT 11/M08 A2998 RMK A01 T01141077  RH  026%=      5-min Rain = 0
KGU1 162217Z 28013KT 12/M08 A2998 RMK A01 T01151076  RH  026%=      5-min Rain = 0
KGU1 162218Z 29014KT 12/M08 A2998 RMK A01 T01161078  RH  025%=      5-min Rain = 0
KGU1 162219Z 29014G21KT 12/M08 A2997 RMK A01 T01161078  RH  025%=      5-min Rain = 0
KGU1 162220Z 29013G22KT 12/M08 A2998 RMK A01 T01161076  RH  026%=      5-min Rain = 0
KGU1 162221Z 29012G19KT 12/M08 A2997 RMK A01 T01151077  RH  026%=      5-min Rain = 0
KGU1 162222Z 29016KT 12/M08 A2997 RMK A01 T01161078  RH  025%=      5-min Rain = 0
KGU1 162223Z 28014KT 12/M08 A2997 RMK A01 T01151080  RH  025%=      5-min Rain = 0
KGU1 162224Z 29015KT 12/M08 A2997 RMK A01 T01151076  RH  026%=      5-min Rain = 0
KGU1 162225Z 28017G22KT 12/M08 A2997 RMK A01 T01161075  RH  026%=      5-min Rain = 0
KGU1 162226Z 28018KT 12/M08 A2997 RMK A01 T01161076  RH  026%=      5-min Rain = 0
KGU1 162227Z 29016KT 12/M08 A2997 RMK A01 T01151076  RH  026%=      5-min Rain = 0
KGU1 162228Z 28014KT 12/M08 A2997 RMK A01 T01161076  RH  026%=      5-min Rain = 0
KGU1 162229Z 28008KT 12/M08 A2997 RMK A01 T01161075  RH  026%=      5-min Rain = 0
KGU1 162230Z 29014KT 12/M08 A2997 RMK A01 T01161075  RH  026%=      5-min Rain = 0
KGU1 162231Z 28011G17KT 12/M07 A2997 RMK A01 T01171071  RH  026%=      5-min Rain = 0
KGU1 162232Z 28013KT 12/M07 A2997 RMK A01 T01181072  RH  026%=      5-min Rain = 0
KGU1 162233Z 29013KT 12/M07 A2997 RMK A01 T01171073  RH  026%=      5-min Rain = 0
KGU1 162234Z 28019KT 12/M08 A2997 RMK A01 T01151075  RH  026%=      5-min Rain = 0
KGU1 162235Z 29015G20KT 12/M07 A2997 RMK A01 T01151074  RH  026%=      5-min Rain = 0
KGU1 162236Z 29013G18KT 12/M07 A2997 RMK A01 T01151073  RH  027%=      5-min Rain = 0
KGU1 162237Z 29013KT 11/M07 A2997 RMK A01 T01141073  RH  027%=      5-min Rain = 0
KGU1 162238Z 29013KT 11/M07 A2997 RMK A01 T01131073  RH  027%=      5-min Rain = 0
KGU1 162239Z 28012KT 11/M07 A2997 RMK A01 T01141070  RH  027%=      5-min Rain = 0
KGU1 162240Z 28014G19KT 12/M07 A2996 RMK A01 T01151072  RH  027%=      5-min Rain = 0
KGU1 162241Z 28011KT 12/M07 A2996 RMK A01 T01151071  RH  027%=      5-min Rain = 0
KGU1 162242Z 28015G21KT 12/M07 A2996 RMK A01 T01161071  RH  026%=      5-min Rain = 0
KGU1 162243Z 28014KT 12/M07 A2996 RMK A01 T01161069  RH  027%=      5-min Rain = 0
KGU1 162244Z 28014G19KT 12/M07 A2996 RMK A01 T01171070  RH  027%=      5-min Rain = 0
KGU1 162245Z 28015G21KT 12/M07 A2996 RMK A01 T01181069  RH  027%=      5-min Rain = 0
KGU1 162246Z 29022KT 12/M07 A2996 RMK A01 T01161071  RH  027%=      5-min Rain = 0
KGU1 162247Z 29017G24KT 12/M07 A2996 RMK A01 T01151070  RH  027%=      5-min Rain = 0
KGU1 162248Z 29014KT 12/M07 A2996 RMK A01 T01151069  RH  027%=      5-min Rain = 0
KGU1 162249Z 30015KT 12/M07 A2996 RMK A01 T01161069  RH  027%=      5-min Rain = 0
KGU1 162250Z 29013KT 12/M07 A2996 RMK A01 T01151068  RH  027%=      5-min Rain = 0
KGU1 162251Z 30013G19KT 12/M07 A2996 RMK A01 T01171067  RH  027%=      5-min Rain = 0
KGU1 162252Z 28012G17KT 12/M07 A2996 RMK A01 T01191067  RH  027%=      5-min Rain = 0
KGU1 162253Z 29012G18KT 12/M07 A2996 RMK A01 T01191068  RH  027%=      5-min Rain = 0
KGU1 162254Z 29015G20KT 12/M07 A2996 RMK A01 T01181070  RH  027%=      5-min Rain = 0
KGU1 162255Z 29014KT 12/M07 A2996 RMK A01 T01181069  RH  027%=      5-min Rain = 0
KGU1 162256Z 28013KT 12/M07 A2996 RMK A01 T01181068  RH  027%=      5-min Rain = 0
KGU1 162257Z 29010KT 12/M07 A2996 RMK A01 T01191068  RH  027%=      5-min Rain = 0
KGU1 162258Z 28017KT 12/M07 A2996 RMK A01 T01201068  RH  026%=      5-min Rain = 0
KGU1 162259Z 29017G23KT 12/M07 A2996 RMK A01 T01201069  RH  026%=      5-min Rain = 0
KGU1 162300Z 29016G22KT 12/M07 A2996 RMK A01 T01181069  RH  027%=      5-min Rain = 0
KGU1 162301Z 29017G23KT 12/M07 A2996 RMK A01 T01181070  RH  027%=      5-min Rain = 0
KGU1 162302Z 28012KT 12/M07 A2996 RMK A01 T01181069  RH  027%=      5-min Rain = 0
KGU1 162303Z 29012G18KT 12/M07 A2996 RMK A01 T01191068  RH  027%=      5-min Rain = 0
KGU1 162304Z 29014KT 12/M07 A2996 RMK A01 T01191070  RH  026%=      5-min Rain = 0
KGU1 162305Z 29014KT 12/M07 A2996 RMK A01 T01181070  RH  026%=      5-min Rain = 0
KGU1 162306Z 29014G20KT 12/M07 A2996 RMK A01 T01181070  RH  026%=      5-min Rain = 0
KGU1 162307Z 29017G22KT 12/M07 A2996 RMK A01 T01181073  RH  026%=      5-min Rain = 0
KGU1 162308Z 30018KT 12/M07 A2996 RMK A01 T01161073  RH  026%=      5-min Rain = 0
KGU1 162309Z 29018KT 12/M07 A2996 RMK A01 T01151073  RH  026%=      5-min Rain = 0
KGU1 162310Z 30017KT 11/M07 A2996 RMK A01 T01141074  RH  026%=      5-min Rain = 0
KGU1 162311Z 29016KT 11/M07 A2995 RMK A01 T01141072  RH  027%=      5-min Rain = 0
KGU1 162312Z 29021KT 11/M07 A2996 RMK A01 T01141072  RH  027%=      5-min Rain = 0
KGU1 162313Z 28018G23KT 11/M07 A2995 RMK A01 T01141074  RH  026%=      5-min Rain = 0
KGU1 162314Z 29022KT 11/M08 A2996 RMK A01 T01131075  RH  026%=      5-min Rain = 0
KGU1 162315Z 29021G28KT 11/M08 A2996 RMK A01 T01121077  RH  026%=      5-min Rain = 0
KGU1 162316Z 28017KT 11/M08 A2995 RMK A01 T01121076  RH  026%=      5-min Rain = 0
KGU1 162317Z 28016G21KT 11/M08 A2996 RMK A01 T01111076  RH  026%=      5-min Rain = 0
KGU1 162318Z 28018G23KT 11/M08 A2996 RMK A01 T01121075  RH  027%=      5-min Rain = 0
KGU1 162319Z 28018KT 11/M08 A2995 RMK A01 T01111076  RH  026%=      5-min Rain = 0
KGU1 162320Z 27016KT 11/M08 A2995 RMK A01 T01111075  RH  027%=      5-min Rain = 0
KGU1 162321Z 29017G24KT 11/M08 A2995 RMK A01 T01121076  RH  026%=      5-min Rain = 0
KGU1 162322Z 29013KT 11/M07 A2995 RMK A01 T01131074  RH  027%=      5-min Rain = 0
KGU1 162323Z 29017KT 11/M08 A2996 RMK A01 T01131078  RH  026%=      5-min Rain = 0
KGU1 162324Z 28013G19KT 11/M08 A2995 RMK A01 T01121076  RH  026%=      5-min Rain = 0
KGU1 162325Z 27013KT 11/M08 A2995 RMK A01 T01131079  RH  025%=      5-min Rain = 0
KGU1 162326Z 28015KT 11/M08 A2995 RMK A01 T01141077  RH  026%=      5-min Rain = 0
KGU1 162327Z 29015KT 11/M08 A2995 RMK A01 T01141077  RH  026%=      5-min Rain = 0
KGU1 162328Z 29018G23KT 11/M08 A2995 RMK A01 T01131079  RH  026%=      5-min Rain = 0
KGU1 162329Z 29014KT 11/M08 A2995 RMK A01 T01121080  RH  026%=      5-min Rain = 0
KGU1 162330Z 29018G23KT 11/M08 A2995 RMK A01 T01111082  RH  025%=      5-min Rain = 0
KGU1 162331Z 29017KT 11/M08 A2995 RMK A01 T01101082  RH  025%=      5-min Rain = 0
KGU1 162332Z 29018G25KT 11/M08 A2995 RMK A01 T01101083  RH  025%=      5-min Rain = 0
KGU1 162333Z 29016G22KT 11/M08 A2995 RMK A01 T01091083  RH  025%=      5-min Rain = 0
KGU1 162334Z 27016KT 11/M08 A2995 RMK A01 T01101084  RH  025%=      5-min Rain = 0
KGU1 162335Z 28014KT 11/M08 A2995 RMK A01 T01101083  RH  025%=      5-min Rain = 0
KGU1 162336Z 28014G21KT 11/M09 A2995 RMK A01 T01101085  RH  025%=      5-min Rain = 0
KGU1 162337Z 28013G19KT 11/M09 A2995 RMK A01 T01101086  RH  025%=      5-min Rain = 0
KGU1 162338Z 29019KT 11/M09 A2995 RMK A01 T01101088  RH  024%=      5-min Rain = 0
KGU1 162339Z 29016G22KT 11/M09 A2995 RMK A01 T01091087  RH  025%=      5-min Rain = 0
KGU1 162340Z 29013KT 11/M09 A2995 RMK A01 T01091088  RH  024%=      5-min Rain = 0
KGU1 162341Z 28012G19KT 11/M09 A2995 RMK A01 T01101087  RH  025%=      5-min Rain = 0
KGU1 162342Z 28018G23KT 11/M09 A2995 RMK A01 T01101088  RH  024%=      5-min Rain = 0
KGU1 162343Z 30014G21KT 11/M09 A2995 RMK A01 T01091086  RH  025%=      5-min Rain = 0
KGU1 162344Z 29019G24KT 11/M09 A2995 RMK A01 T01091089  RH  024%=      5-min Rain = 0
KGU1 162345Z 28015KT 11/M09 A2995 RMK A01 T01081089  RH  025%=      5-min Rain = 0
KGU1 162346Z 28017G22KT 11/M09 A2995 RMK A01 T01071089  RH  025%=      5-min Rain = 0
KGU1 162347Z 28013KT 11/M09 A2995 RMK A01 T01071088  RH  025%=      5-min Rain = 0
KGU1 162348Z 28012KT 11/M08 A2995 RMK A01 T01081083  RH  026%=      5-min Rain = 0
KGU1 162349Z 29013G21KT 11/M08 A2995 RMK A01 T01091083  RH  025%=      5-min Rain = 0
KGU1 162350Z 27013G20KT 11/M08 A2995 RMK A01 T01091084  RH  025%=      5-min Rain = 0
KGU1 162351Z 27016KT 11/M08 A2994 RMK A01 T01091079  RH  026%=      5-min Rain = 0
KGU1 162352Z 28015G21KT 11/M08 A2995 RMK A01 T01091078  RH  026%=      5-min Rain = 0
KGU1 162353Z 27019KT 11/M07 A2995 RMK A01 T01091074  RH  027%=      5-min Rain = 0
KGU1 162354Z 29018G23KT 11/M08 A2995 RMK A01 T01091075  RH  027%=      5-min Rain = 0
KGU1 162355Z 28015KT 11/M08 A2995 RMK A01 T01081080  RH  026%=      5-min Rain = 0
KGU1 162356Z 28017G22KT 11/M07 A2995 RMK A01 T01081072  RH  028%=      5-min Rain = 0
KGU1 162357Z 28015KT 11/M08 A2995 RMK A01 T01081076  RH  027%=      5-min Rain = 0
KGU1 162358Z 28019G28KT 11/M08 A2995 RMK A01 T01081076  RH  027%=      5-min Rain = 0
KGU1 162359Z 28017KT 11/M08 A2995 RMK A01 T01071075  RH  027%=      5-min Rain = 0
KGU1 170000Z 28014G19KT 11/M08 A2995 RMK A01 T01071078  RH  027%=      5-min Rain = 0
KGU1 170001Z 28015KT 11/M08 A2995 RMK A01 T01061082  RH  026%=      5-min Rain = 0
KGU1 170002Z 28016G21KT 10/M08 A2995 RMK A01 T01041080  RH  027%=      5-min Rain = 0
KGU1 170003Z 28015G20KT 10/M08 A2995 RMK A01 T01031079  RH  027%=      5-min Rain = 0
KGU1 170004Z 28019KT 10/M08 A2995 RMK A01 T01021077  RH  028%=      5-min Rain = 0
KGU1 170005Z 27015G21KT 10/M08 A2995 RMK A01 T01021076  RH  028%=      5-min Rain = 0
KGU1 170006Z 28016KT 10/M08 A2995 RMK A01 T01011079  RH  028%=      5-min Rain = 0
KGU1 170007Z 28017G25KT 10/M08 A2995 RMK A01 T01001081  RH  027%=      5-min Rain = 0
KGU1 170008Z 28018G23KT 10/M08 A2995 RMK A01 T00991082  RH  027%=      5-min Rain = 0
KGU1 170009Z 28016G22KT 10/M08 A2995 RMK A01 T00991082  RH  027%=      5-min Rain = 0
KGU1 170010Z 29015G20KT 10/M09 A2995 RMK A01 T00981087  RH  027%=      5-min Rain = 0
KGU1 170011Z 28017KT 10/M08 A2995 RMK A01 T00971082  RH  028%=      5-min Rain = 0
KGU1 170012Z 28012G20KT 10/M08 A2995 RMK A01 T00971082  RH  028%=      5-min Rain = 0
KGU1 170013Z 28015G20KT 10/M08 A2995 RMK A01 T00971083  RH  028%=      5-min Rain = 0
KGU1 170014Z 28018G24KT 10/M08 A2995 RMK A01 T00971078  RH  029%=      5-min Rain = 0
KGU1 170015Z 28020KT 10/M08 A2995 RMK A01 T00971081  RH  028%=      5-min Rain = 0
KGU1 170016Z 28022KT 10/M08 A2994 RMK A01 T00981081  RH  028%=      5-min Rain = 0
KGU1 170017Z 29021KT 10/M09 A2995 RMK A01 T00971085  RH  027%=      5-min Rain = 0
KGU1 170018Z 28015G22KT 10/M08 A2995 RMK A01 T00971082  RH  028%=      5-min Rain = 0
KGU1 170019Z 29019KT 10/M08 A2995 RMK A01 T00971082  RH  028%=      5-min Rain = 0
KGU1 170020Z 28018G25KT 10/M09 A2995 RMK A01 T00971085  RH  027%=      5-min Rain = 0
KGU1 170021Z 28017KT 10/M09 A2995 RMK A01 T00961086  RH  027%=      5-min Rain = 0
KGU1 170022Z 28019KT 10/M08 A2995 RMK A01 T00961083  RH  028%=      5-min Rain = 0
KGU1 170023Z 28017KT 10/M08 A2995 RMK A01 T00961077  RH  029%=      5-min Rain = 0
KGU1 170024Z 28018G23KT 10/M08 A2995 RMK A01 T00961076  RH  029%=      5-min Rain = 0
KGU1 170025Z 28017G22KT 10/M09 A2995 RMK A01 T00961085  RH  027%=      5-min Rain = 0
KGU1 170026Z 28017KT 10/M08 A2995 RMK A01 T00961084  RH  028%=      5-min Rain = 0
KGU1 170027Z 28018KT 10/M07 A2995 RMK A01 T00961074  RH  030%=      5-min Rain = 0
KGU1 170028Z 28018G25KT 10/M07 A2995 RMK A01 T00971073  RH  030%=      5-min Rain = 0
KGU1 170029Z 27015KT 10/M08 A2995 RMK A01 T00971075  RH  029%=      5-min Rain = 0
KGU1 170030Z 28015KT 10/M08 A2995 RMK A01 T00971075  RH  029%=      5-min Rain = 0
KGU1 170031Z 28016KT 10/M07 A2995 RMK A01 T00971070  RH  030%=      5-min Rain = 0
KGU1 170032Z 27015G21KT 10/M07 A2995 RMK A01 T00971070  RH  031%=      5-min Rain = 0
KGU1 170033Z 28017KT 10/M07 A2995 RMK A01 T00971073  RH  030%=      5-min Rain = 0
KGU1 170034Z 27015KT 10/M08 A2995 RMK A01 T00971078  RH  029%=      5-min Rain = 0
KGU1 170035Z 27017KT 10/M08 A2995 RMK A01 T00961077  RH  029%=      5-min Rain = 0
KGU1 170036Z 28013KT 10/M07 A2995 RMK A01 T00961073  RH  030%=      5-min Rain = 0
KGU1 170037Z 28013G19KT 10/M08 A2995 RMK A01 T00951078  RH  029%=      5-min Rain = 0
KGU1 170038Z 28019G25KT 10/M07 A2995 RMK A01 T00951071  RH  031%=      5-min Rain = 0
KGU1 170039Z 28016G23KT 10/M08 A2995 RMK A01 T00961075  RH  030%=      5-min Rain = 0
KGU1 170040Z 28017KT 10/M07 A2995 RMK A01 T00961074  RH  030%=      5-min Rain = 0
KGU1 170041Z 27021KT 10/M07 A2994 RMK A01 T00961074  RH  030%=      5-min Rain = 0
KGU1 170042Z 28015KT 10/M08 A2994 RMK A01 T00961076  RH  029%=      5-min Rain = 0
KGU1 170043Z 28019KT 10/M07 A2995 RMK A01 T00961073  RH  030%=      5-min Rain = 0
KGU1 170044Z 28017G23KT 10/M07 A2995 RMK A01 T00961068  RH  031%=      5-min Rain = 0
KGU1 170045Z 28018G23KT 10/M07 A2995 RMK A01 T00961068  RH  031%=      5-min Rain = 0
KGU1 170046Z 28015G22KT 10/M07 A2995 RMK A01 T00961068  RH  031%=      5-min Rain = 0
KGU1 170047Z 27017KT 10/M07 A2994 RMK A01 T00961069  RH  031%=      5-min Rain = 0
KGU1 170048Z 27018G23KT 10/M07 A2994 RMK A01 T00961068  RH  031%=      5-min Rain = 0
KGU1 170049Z 28020G27KT 10/M06 A2994 RMK A01 T00961064  RH  032%=      5-min Rain = 0
KGU1 170050Z 28023KT 10/M06 A2994 RMK A01 T00971062  RH  032%=      5-min Rain = 0
KGU1 170051Z 28017G23KT 10/M06 A2994 RMK A01 T00981061  RH  032%=      5-min Rain = 0
KGU1 170052Z 28017G24KT 10/M07 A2994 RMK A01 T00981067  RH  031%=      5-min Rain = 0
KGU1 170053Z 28018KT 10/M07 A2994 RMK A01 T00971068  RH  031%=      5-min Rain = 0
KGU1 170054Z 28018G23KT 10/M07 A2994 RMK A01 T00971066  RH  031%=      5-min Rain = 0
KGU1 170055Z 28017G22KT 10/M07 A2994 RMK A01 T00971067  RH  031%=      5-min Rain = 0
KGU1 170056Z 28014G19KT 10/M07 A2994 RMK A01 T00961071  RH  030%=      5-min Rain = 0
KGU1 170057Z 27019G24KT 10/M06 A2994 RMK A01 T00961063  RH  032%=      5-min Rain = 0
KGU1 170058Z 28022KT 10/M06 A2994 RMK A01 T00971062  RH  032%=      5-min Rain = 0
KGU1 170059Z 28020G28KT 10/M06 A2994 RMK A01 T00981062  RH  032%=      5-min Rain = 0
KGU1 170100Z 28017G26KT 10/M07 A2994 RMK A01 T00981070  RH  030%=      5-min Rain = 0
KGU1 170101Z 27018G24KT 10/M07 A2994 RMK A01 T00971069  RH  031%=      5-min Rain = 0
KGU1 170102Z 28017KT 10/M07 A2994 RMK A01 T00961073  RH  030%=      5-min Rain = 0
KGU1 170103Z 28019G24KT 10/M07 A2994 RMK A01 T00951071  RH  031%=      5-min Rain = 0
KGU1 170104Z 28018G24KT 10/M07 A2994 RMK A01 T00951074  RH  030%=      5-min Rain = 0
KGU1 170105Z 27024G31KT 10/M07 A2994 RMK A01 T00951065  RH  032%=      5-min Rain = 0
KGU1 170106Z 28019KT 10/M07 A2994 RMK A01 T00961066  RH  032%=      5-min Rain = 0
KGU1 170107Z 27020G25KT 10/M07 A2994 RMK A01 T00961068  RH  031%=      5-min Rain = 0
KGU1 170108Z 28020G26KT 10/M07 A2994 RMK A01 T00971066  RH  031%=      5-min Rain = 0
KGU1 170109Z 27016G23KT 10/M07 A2994 RMK A01 T00961070  RH  031%=      5-min Rain = 0
KGU1 170110Z 28017KT 10/M07 A2994 RMK A01 T00961069  RH  031%=      5-min Rain = 0
KGU1 170111Z 28018KT 10/M07 A2994 RMK A01 T00951067  RH  031%=      5-min Rain = 0
KGU1 170112Z 28019G24KT 10/M07 A2994 RMK A01 T00961068  RH  031%=      5-min Rain = 0
KGU1 170113Z 28015G20KT 10/M07 A2994 RMK A01 T00951074  RH  030%=      5-min Rain = 0
KGU1 170114Z 28016KT 09/M08 A2994 RMK A01 T00931079  RH  029%=      5-min Rain = 0
KGU1 170115Z 28021G28KT 09/M08 A2994 RMK A01 T00931077  RH  030%=      5-min Rain = 0
KGU1 170116Z 28019G25KT 09/M08 A2994 RMK A01 T00931077  RH  030%=      5-min Rain = 0
KGU1 170117Z 29020KT 09/M08 A2994 RMK A01 T00941079  RH  029%=      5-min Rain = 0
KGU1 170118Z 29023KT 09/M08 A2994 RMK A01 T00931081  RH  029%=      5-min Rain = 0
KGU1 170119Z 28020KT 09/M08 A2994 RMK A01 T00921081  RH  029%=      5-min Rain = 0
KGU1 170120Z 28016G23KT 09/M08 A2994 RMK A01 T00921080  RH  029%=      5-min Rain = 0
KGU1 170121Z 28018G24KT 09/M08 A2994 RMK A01 T00911080  RH  029%=      5-min Rain = 0
KGU1 170122Z 29020G27KT 09/M08 A2994 RMK A01 T00911081  RH  029%=      5-min Rain = 0
KGU1 170123Z 28019G25KT 09/M08 A2994 RMK A01 T00921080  RH  029%=      5-min Rain = 0
KGU1 170124Z 29022G31KT 09/M08 A2994 RMK A01 T00921080  RH  029%=      5-min Rain = 0
KGU1 170125Z 28023G28KT 09/M08 A2994 RMK A01 T00931079  RH  029%=      5-min Rain = 0
KGU1 170126Z 29027G34KT 09/M08 A2994 RMK A01 T00931079  RH  029%=      5-min Rain = 0
KGU1 170127Z 29023G29KT 09/M08 A2994 RMK A01 T00931081  RH  029%=      5-min Rain = 0
KGU1 170128Z 29024KT 09/M08 A2994 RMK A01 T00931080  RH  029%=      5-min Rain = 0
KGU1 170129Z 29023G29KT 09/M08 A2994 RMK A01 T00931080  RH  029%=      5-min Rain = 0
KGU1 170130Z 28023G31KT 09/M08 A2994 RMK A01 T00931080  RH  029%=      5-min Rain = 0
KGU1 170131Z 29019G26KT 09/M08 A2994 RMK A01 T00921079  RH  029%=      5-min Rain = 0
KGU1 170132Z 28022G28KT 09/M08 A2994 RMK A01 T00921078  RH  030%=      5-min Rain = 0
KGU1 170133Z 29021G26KT 09/M08 A2994 RMK A01 T00921078  RH  030%=      5-min Rain = 0
KGU1 170134Z 28022G27KT 09/M08 A2994 RMK A01 T00921077  RH  030%=      5-min Rain = 0
KGU1 170135Z 29022G29KT 09/M08 A2994 RMK A01 T00921077  RH  030%=      5-min Rain = 0
KGU1 170136Z 28025G30KT 09/M08 A2994 RMK A01 T00921077  RH  030%=      5-min Rain = 0
KGU1 170137Z 28023G28KT 09/M08 A2993 RMK A01 T00931076  RH  030%=      5-min Rain = 0
KGU1 170138Z 28025G30KT 09/M08 A2993 RMK A01 T00931075  RH  030%=      5-min Rain = 0
KGU1 170139Z 29023KT 09/M08 A2993 RMK A01 T00931075  RH  030%=      5-min Rain = 0
KGU1 170140Z 29026KT 09/M08 A2993 RMK A01 T00931075  RH  030%=      5-min Rain = 0
KGU1 170141Z 28026KT 09/M08 A2993 RMK A01 T00931075  RH  030%=      5-min Rain = 0
KGU1 170142Z 29021KT 09/M08 A2993 RMK A01 T00931075  RH  030%=      5-min Rain = 0
KGU1 170143Z 29025G31KT 09/M07 A2993 RMK A01 T00931074  RH  030%=      5-min Rain = 0
KGU1 170144Z 29025KT 09/M08 A2993 RMK A01 T00931075  RH  030%=      5-min Rain = 0
KGU1 170145Z 29023KT 09/M07 A2993 RMK A01 T00931073  RH  031%=      5-min Rain = 0
KGU1 170146Z 29025KT 09/M07 A2993 RMK A01 T00931074  RH  031%=      5-min Rain = 0
KGU1 170147Z 29021KT 09/M07 A2993 RMK A01 T00921073  RH  031%=      5-min Rain = 0
KGU1 170148Z 28024G29KT 09/M07 A2993 RMK A01 T00921073  RH  031%=      5-min Rain = 0
KGU1 170149Z 29022KT 09/M07 A2993 RMK A01 T00931073  RH  031%=      5-min Rain = 0
KGU1 170150Z 28023G28KT 09/M07 A2993 RMK A01 T00921073  RH  031%=      5-min Rain = 0
KGU1 170151Z 29023G29KT 09/M07 A2993 RMK A01 T00921073  RH  031%=      5-min Rain = 0
KGU1 170152Z 29024G31KT 09/M07 A2993 RMK A01 T00921073  RH  031%=      5-min Rain = 0
KGU1 170153Z 29022G28KT 09/M07 A2993 RMK A01 T00921073  RH  031%=      5-min Rain = 0
KGU1 170154Z 29026G33KT 09/M07 A2993 RMK A01 T00921073  RH  031%=      5-min Rain = 0
KGU1 170155Z 29021G29KT 09/M07 A2993 RMK A01 T00921073  RH  031%=      5-min Rain = 0
KGU1 170156Z 29025G32KT 09/M07 A2993 RMK A01 T00921073  RH  031%=      5-min Rain = 0
KGU1 170157Z 29025KT 09/M07 A2993 RMK A01 T00931073  RH  031%=      5-min Rain = 0
KGU1 170158Z 29020G28KT 09/M07 A2993 RMK A01 T00921072  RH  031%=      5-min Rain = 0
KGU1 170159Z 29020G25KT 09/M07 A2994 RMK A01 T00921072  RH  031%=      5-min Rain = 0
KGU1 170200Z 29020G30KT 09/M07 A2994 RMK A01 T00921072  RH  031%=      5-min Rain = 0
KGU1 170201Z 29024G29KT 09/M07 A2994 RMK A01 T00921072  RH  031%=      5-min Rain = 0
KGU1 170202Z 29022G28KT 09/M07 A2994 RMK A01 T00921072  RH  031%=      5-min Rain = 0
KGU1 170203Z 29025KT 09/M07 A2994 RMK A01 T00921072  RH  031%=      5-min Rain = 0
KGU1 170204Z 29023G31KT 09/M07 A2994 RMK A01 T00921072  RH  031%=      5-min Rain = 0
KGU1 170205Z 29022G32KT 09/M07 A2994 RMK A01 T00921072  RH  031%=      5-min Rain = 0
KGU1 170206Z 29021G28KT 09/M07 A2994 RMK A01 T00931072  RH  031%=      5-min Rain = 0
KGU1 170207Z 29025G30KT 09/M07 A2994 RMK A01 T00921072  RH  031%=      5-min Rain = 0
KGU1 170208Z 29026G31KT 09/M07 A2994 RMK A01 T00931071  RH  031%=      5-min Rain = 0
KGU1 170209Z 29024G29KT 09/M07 A2994 RMK A01 T00931071  RH  031%=      5-min Rain = 0
KGU1 170210Z 29023KT 09/M07 A2994 RMK A01 T00931071  RH  031%=      5-min Rain = 0
KGU1 170211Z 29022KT 09/M07 A2994 RMK A01 T00921070  RH  031%=      5-min Rain = 0
KGU1 170212Z 29019KT 09/M07 A2994 RMK A01 T00921070  RH  031%=      5-min Rain = 0
KGU1 170213Z 29019KT 09/M07 A2994 RMK A01 T00911071  RH  032%=      5-min Rain = 0
KGU1 170214Z 29023G29KT 09/M07 A2994 RMK A01 T00911071  RH  032%=      5-min Rain = 0
KGU1 170215Z 29018G26KT 09/M07 A2994 RMK A01 T00911070  RH  032%=      5-min Rain = 0
KGU1 170216Z 28023G28KT 09/M07 A2994 RMK A01 T00911069  RH  032%=      5-min Rain = 0
KGU1 170217Z 29023G28KT 09/M07 A2993 RMK A01 T00921069  RH  032%=      5-min Rain = 0
KGU1 170218Z 29023KT 09/M07 A2993 RMK A01 T00921069  RH  032%=      5-min Rain = 0
KGU1 170219Z 29018G24KT 09/M07 A2994 RMK A01 T00921069  RH  032%=      5-min Rain = 0
KGU1 170220Z 29020G25KT 09/M07 A2994 RMK A01 T00911069  RH  032%=      5-min Rain = 0
KGU1 170221Z 29025G30KT 09/M07 A2994 RMK A01 T00921068  RH  032%=      5-min Rain = 0
KGU1 170222Z 28025G32KT 09/M07 A2994 RMK A01 T00921067  RH  032%=      5-min Rain = 0
KGU1 170223Z 29024G32KT 09/M07 A2993 RMK A01 T00921069  RH  032%=      5-min Rain = 0
KGU1 170224Z 29024G30KT 09/M07 A2994 RMK A01 T00921069  RH  032%=      5-min Rain = 0
KGU1 170225Z 30026G32KT 09/M07 A2994 RMK A01 T00921068  RH  032%=      5-min Rain = 0
KGU1 170226Z 29023KT 09/M07 A2993 RMK A01 T00921068  RH  032%=      5-min Rain = 0
KGU1 170227Z 29019KT 09/M07 A2994 RMK A01 T00911068  RH  032%=      5-min Rain = 0
KGU1 170228Z 30020G27KT 09/M07 A2993 RMK A01 T00901069  RH  032%=      5-min Rain = 0
KGU1 170229Z 29024G31KT 09/M07 A2993 RMK A01 T00901067  RH  032%=      5-min Rain = 0
KGU1 170230Z 30021G27KT 09/M07 A2993 RMK A01 T00911068  RH  032%=      5-min Rain = 0
KGU1 170231Z 29024KT 09/M07 A2993 RMK A01 T00911067  RH  032%=      5-min Rain = 0
KGU1 170232Z 29025G32KT 09/M07 A2994 RMK A01 T00911067  RH  032%=      5-min Rain = 0
KGU1 170233Z 29023KT 09/M07 A2993 RMK A01 T00911068  RH  032%=      5-min Rain = 0
KGU1 170234Z 30020G28KT 09/M07 A2994 RMK A01 T00911068  RH  032%=      5-min Rain = 0
KGU1 170235Z 29021G27KT 09/M07 A2993 RMK A01 T00911068  RH  032%=      5-min Rain = 0
KGU1 170236Z 29024KT 09/M07 A2993 RMK A01 T00911067  RH  033%=      5-min Rain = 0
KGU1 170237Z 29024KT 09/M07 A2993 RMK A01 T00911067  RH  032%=      5-min Rain = 0
KGU1 170238Z 29022KT 09/M07 A2993 RMK A01 T00911067  RH  033%=      5-min Rain = 0
KGU1 170239Z 29023G28KT 09/M07 A2993 RMK A01 T00911067  RH  033%=      5-min Rain = 0
KGU1 170240Z 29025G31KT 09/M07 A2993 RMK A01 T00911067  RH  032%=      5-min Rain = 0
KGU1 170241Z 29026G31KT 09/M07 A2993 RMK A01 T00911067  RH  032%=      5-min Rain = 0
KGU1 170242Z 29024G33KT 09/M07 A2993 RMK A01 T00921067  RH  032%=      5-min Rain = 0
KGU1 170243Z 30021G27KT 09/M07 A2993 RMK A01 T00911067  RH  032%=      5-min Rain = 0
KGU1 170244Z 29021G28KT 09/M07 A2993 RMK A01 T00911067  RH  033%=      5-min Rain = 0
KGU1 170245Z 29022G30KT 09/M07 A2993 RMK A01 T00901067  RH  033%=      5-min Rain = 0
KGU1 170246Z 29021G28KT 09/M07 A2993 RMK A01 T00901067  RH  033%=      5-min Rain = 0
KGU1 170247Z 29020G26KT 09/M07 A2993 RMK A01 T00901067  RH  033%=      5-min Rain = 0
KGU1 170248Z 30018G25KT 09/M07 A2993 RMK A01 T00901068  RH  033%=      5-min Rain = 0
KGU1 170249Z 30021KT 09/M07 A2993 RMK A01 T00901068  RH  033%=      5-min Rain = 0
KGU1 170250Z 29022G29KT 09/M07 A2993 RMK A01 T00901067  RH  033%=      5-min Rain = 0
KGU1 170251Z 29022G28KT 09/M07 A2993 RMK A01 T00901067  RH  033%=      5-min Rain = 0
KGU1 170252Z 29022G28KT 09/M07 A2993 RMK A01 T00901068  RH  032%=      5-min Rain = 0
KGU1 170253Z 30021G27KT 09/M07 A2994 RMK A01 T00901068  RH  032%=      5-min Rain = 0
KGU1 170254Z 29024G29KT 09/M07 A2993 RMK A01 T00901068  RH  032%=      5-min Rain = 0
KGU1 170255Z 30019KT 09/M07 A2993 RMK A01 T00891068  RH  033%=      5-min Rain = 0
KGU1 170256Z 29018G23KT 09/M07 A2993 RMK A01 T00891068  RH  033%=      5-min Rain = 0
KGU1 170257Z 30020G25KT 09/M07 A2993 RMK A01 T00881068  RH  033%=      5-min Rain = 0
KGU1 170258Z 29021G27KT 09/M07 A2993 RMK A01 T00881068  RH  033%=      5-min Rain = 0
KGU1 170259Z 30019KT 09/M07 A2993 RMK A01 T00881068  RH  033%=      5-min Rain = 0
KGU1 170300Z 29022G30KT 09/M07 A2993 RMK A01 T00891068  RH  033%=      5-min Rain = 0
KGU1 170301Z 30020KT 09/M07 A2993 RMK A01 T00891068  RH  033%=      5-min Rain = 0
KGU1 170302Z 30021G26KT 09/M07 A2993 RMK A01 T00891068  RH  033%=      5-min Rain = 0
KGU1 170303Z 29022G27KT 09/M07 A2993 RMK A01 T00891068  RH  033%=      5-min Rain = 0
KGU1 170304Z 29022G27KT 09/M07 A2993 RMK A01 T00891068  RH  033%=      5-min Rain = 0
KGU1 170305Z 29021G31KT 09/M07 A2993 RMK A01 T00891068  RH  033%=      5-min Rain = 0
KGU1 170306Z 29022G27KT 09/M07 A2993 RMK A01 T00891068  RH  033%=      5-min Rain = 0
KGU1 170307Z 29025KT 09/M07 A2993 RMK A01 T00901068  RH  033%=      5-min Rain = 0
KGU1 170308Z 29022KT 09/M07 A2993 RMK A01 T00901068  RH  033%=      5-min Rain = 0
KGU1 170309Z 30021KT 09/M07 A2993 RMK A01 T00891068  RH  033%=      5-min Rain = 0
KGU1 170310Z 29022G28KT 09/M07 A2993 RMK A01 T00891068  RH  033%=      5-min Rain = 0
KGU1 170311Z 30022G27KT 09/M07 A2993 RMK A01 T00891068  RH  033%=      5-min Rain = 0
KGU1 170312Z 29024G32KT 09/M07 A2994 RMK A01 T00891068  RH  033%=      5-min Rain = 0
KGU1 170313Z 29021G28KT 09/M07 A2993 RMK A01 T00891069  RH  032%=      5-min Rain = 0
KGU1 170314Z 30025KT 09/M07 A2994 RMK A01 T00891069  RH  032%=      5-min Rain = 0
KGU1 170315Z 29026G33KT 09/M07 A2993 RMK A01 T00901069  RH  032%=      5-min Rain = 0
KGU1 170316Z 29026G31KT 09/M07 A2993 RMK A01 T00901069  RH  032%=      5-min Rain = 0
KGU1 170317Z 29023G30KT 09/M07 A2993 RMK A01 T00901068  RH  032%=      5-min Rain = 0
KGU1 170318Z 29025G33KT 09/M07 A2993 RMK A01 T00901068  RH  032%=      5-min Rain = 0
KGU1 170319Z 29025G33KT 09/M07 A2993 RMK A01 T00901069  RH  032%=      5-min Rain = 0
KGU1 170320Z 29022KT 09/M07 A2993 RMK A01 T00901068  RH  032%=      5-min Rain = 0
KGU1 170321Z 30025KT 09/M07 A2994 RMK A01 T00901068  RH  032%=      5-min Rain = 0
KGU1 170322Z 30023G30KT 09/M07 A2993 RMK A01 T00901068  RH  033%=      5-min Rain = 0
KGU1 170323Z 29022G31KT 09/M07 A2993 RMK A01 T00891067  RH  033%=      5-min Rain = 0
KGU1 170324Z 29026G32KT 09/M07 A2993 RMK A01 T00891067  RH  033%=      5-min Rain = 0
KGU1 170325Z 29024G30KT 09/M07 A2993 RMK A01 T00891066  RH  033%=      5-min Rain = 0
KGU1 170326Z 30020G25KT 09/M07 A2993 RMK A01 T00891066  RH  033%=      5-min Rain = 0
KGU1 170327Z 30021G34KT 09/M07 A2993 RMK A01 T00891065  RH  033%=      5-min Rain = 0
KGU1 170328Z 29024G29KT 09/M06 A2993 RMK A01 T00891063  RH  034%=      5-min Rain = 0
KGU1 170329Z 29024G31KT 09/M06 A2993 RMK A01 T00891063  RH  034%=      5-min Rain = 0
KGU1 170330Z 29026G31KT 09/M06 A2993 RMK A01 T00901063  RH  034%=      5-min Rain = 0
KGU1 170331Z 30018KT 09/M06 A2993 RMK A01 T00901063  RH  034%=      5-min Rain = 0
KGU1 170332Z 30020KT 09/M06 A2993 RMK A01 T00891062  RH  034%=      5-min Rain = 0
KGU1 170333Z 30023G31KT 09/M06 A2993 RMK A01 T00881061  RH  035%=      5-min Rain = 0
KGU1 170334Z 29025KT 09/M06 A2993 RMK A01 T00891061  RH  034%=      5-min Rain = 0
KGU1 170335Z 29024G32KT 09/M06 A2993 RMK A01 T00901061  RH  034%=      5-min Rain = 0
KGU1 170336Z 29023G28KT 09/M06 A2993 RMK A01 T00901061  RH  034%=      5-min Rain = 0
KGU1 170337Z 30024KT 09/M06 A2993 RMK A01 T00901061  RH  034%=      5-min Rain = 0
KGU1 170338Z 30026KT 09/M06 A2993 RMK A01 T00901061  RH  034%=      5-min Rain = 0
KGU1 170339Z 29025KT 09/M06 A2993 RMK A01 T00901060  RH  034%=      5-min Rain = 0
KGU1 170340Z 30023G29KT 09/M06 A2993 RMK A01 T00901060  RH  034%=      5-min Rain = 0
KGU1 170341Z 30022G29KT 09/M06 A2993 RMK A01 T00901060  RH  034%=      5-min Rain = 0
KGU1 170342Z 29023G31KT 09/M06 A2993 RMK A01 T00891060  RH  035%=      5-min Rain = 0
KGU1 170343Z 29025G30KT 09/M06 A2993 RMK A01 T00901060  RH  035%=      5-min Rain = 0
KGU1 170344Z 30027G35KT 09/M06 A2993 RMK A01 T00901060  RH  034%=      5-min Rain = 0
KGU1 170345Z 30024G32KT 09/M06 A2993 RMK A01 T00901060  RH  034%=      5-min Rain = 0
KGU1 170346Z 29022KT 09/M06 A2993 RMK A01 T00901060  RH  035%=      5-min Rain = 0
KGU1 170347Z 30020G28KT 09/M06 A2993 RMK A01 T00891060  RH  035%=      5-min Rain = 0
KGU1 170348Z 29024G30KT 09/M06 A2993 RMK A01 T00891060  RH  035%=      5-min Rain = 0
KGU1 170349Z 29023KT 09/M06 A2993 RMK A01 T00881061  RH  035%=      5-min Rain = 0
KGU1 170350Z 29025KT 09/M06 A2993 RMK A01 T00881060  RH  035%=      5-min Rain = 0
KGU1 170351Z 30021KT 09/M06 A2993 RMK A01 T00891060  RH  035%=      5-min Rain = 0
KGU1 170352Z 30026G32KT 09/M06 A2993 RMK A01 T00881060  RH  035%=      5-min Rain = 0
KGU1 170353Z 29026G34KT 09/M06 A2993 RMK A01 T00891059  RH  035%=      5-min Rain = 0
KGU1 170354Z 29024G31KT 09/M06 A2993 RMK A01 T00881059  RH  035%=      5-min Rain = 0
KGU1 170355Z 29025G32KT 09/M06 A2993 RMK A01 T00881059  RH  035%=      5-min Rain = 0
KGU1 170356Z 29023G29KT 09/M06 A2993 RMK A01 T00881059  RH  035%=      5-min Rain = 0
KGU1 170357Z 30022G30KT 09/M06 A2993 RMK A01 T00881059  RH  035%=      5-min Rain = 0
KGU1 170358Z 29023G30KT 09/M06 A2993 RMK A01 T00881059  RH  035%=      5-min Rain = 0
KGU1 170359Z 30023G29KT 09/M06 A2993 RMK A01 T00871058  RH  036%=      5-min Rain = 0
KGU1 170400Z 30023KT 09/M06 A2993 RMK A01 T00881057  RH  036%=      5-min Rain = 0
KGU1 170401Z 30026KT 09/M06 A2993 RMK A01 T00881058  RH  035%=      5-min Rain = 0
KGU1 170402Z 30025G31KT 09/M06 A2993 RMK A01 T00891058  RH  035%=      5-min Rain = 0
KGU1 170403Z 30027G33KT 09/M06 A2993 RMK A01 T00891058  RH  035%=      5-min Rain = 0
KGU1 170404Z 29024G29KT 09/M06 A2993 RMK A01 T00891057  RH  036%=      5-min Rain = 0
KGU1 170405Z 29019KT 09/M06 A2993 RMK A01 T00891057  RH  036%=      5-min Rain = 0
KGU1 170406Z 29022G29KT 09/M06 A2993 RMK A01 T00881057  RH  036%=      5-min Rain = 0
KGU1 170407Z 29022KT 09/M06 A2993 RMK A01 T00881057  RH  036%=      5-min Rain = 0
KGU1 170408Z 29023G28KT 09/M06 A2993 RMK A01 T00881055  RH  036%=      5-min Rain = 0
KGU1 170409Z 29026G31KT 09/M06 A2993 RMK A01 T00891056  RH  036%=      5-min Rain = 0
KGU1 170410Z 29021KT 09/M06 A2993 RMK A01 T00891055  RH  036%=      5-min Rain = 0
KGU1 170411Z 29022KT 09/M06 A2993 RMK A01 T00891056  RH  036%=      5-min Rain = 0
KGU1 170412Z 29025G33KT 09/M06 A2993 RMK A01 T00891056  RH  036%=      5-min Rain = 0
KGU1 170413Z 29021G29KT 09/M06 A2993 RMK A01 T00901057  RH  035%=      5-min Rain = 0
KGU1 170414Z 29021G27KT 09/M06 A2993 RMK A01 T00891055  RH  036%=      5-min Rain = 0
KGU1 170415Z 29024G29KT 09/M06 A2993 RMK A01 T00891057  RH  035%=      5-min Rain = 0
KGU1 170416Z 29025G31KT 09/M06 A2993 RMK A01 T00901057  RH  035%=      5-min Rain = 0
KGU1 170417Z 29025KT 09/M06 A2993 RMK A01 T00911056  RH  035%=      5-min Rain = 0
KGU1 170418Z 29019G24KT 09/M06 A2993 RMK A01 T00901056  RH  035%=      5-min Rain = 0
KGU1 170419Z 29021KT 09/M06 A2993 RMK A01 T00901056  RH  036%=      5-min Rain = 0
KGU1 170420Z 29020G31KT 09/M06 A2993 RMK A01 T00891056  RH  036%=      5-min Rain = 0
KGU1 170421Z 29024G30KT 09/M06 A2993 RMK A01 T00901059  RH  035%=      5-min Rain = 0
KGU1 170422Z 29025G31KT 09/M06 A2993 RMK A01 T00901059  RH  035%=      5-min Rain = 0
KGU1 170423Z 29019G26KT 09/M06 A2993 RMK A01 T00901059  RH  035%=      5-min Rain = 0
KGU1 170424Z 28019G24KT 09/M06 A2993 RMK A01 T00901062  RH  034%=      5-min Rain = 0
KGU1 170425Z 29025G31KT 09/M06 A2993 RMK A01 T00891059  RH  035%=      5-min Rain = 0
KGU1 170426Z 29026G32KT 09/M06 A2993 RMK A01 T00891057  RH  035%=      5-min Rain = 0
KGU1 170427Z 29023G28KT 09/M06 A2993 RMK A01 T00891058  RH  035%=      5-min Rain = 0
KGU1 170428Z 30024KT 09/M06 A2993 RMK A01 T00891059  RH  035%=      5-min Rain = 0
KGU1 170429Z 29024KT 09/M06 A2993 RMK A01 T00891057  RH  035%=      5-min Rain = 0
KGU1 170430Z 29022G27KT 09/M06 A2993 RMK A01 T00881057  RH  036%=      5-min Rain = 0
KGU1 170431Z 29021KT 09/M06 A2993 RMK A01 T00881059  RH  035%=      5-min Rain = 0
KGU1 170432Z 29021KT 09/M06 A2992 RMK A01 T00881059  RH  035%=      5-min Rain = 0
KGU1 170433Z 29022G27KT 09/M06 A2992 RMK A01 T00881061  RH  035%=      5-min Rain = 0
KGU1 170434Z 29024G29KT 09/M06 A2992 RMK A01 T00891064  RH  034%=      5-min Rain = 0
KGU1 170435Z 29024KT 09/M07 A2992 RMK A01 T00891066  RH  033%=      5-min Rain = 0
KGU1 170436Z 29021G28KT 09/M07 A2992 RMK A01 T00891065  RH  033%=      5-min Rain = 0
KGU1 170437Z 29025G30KT 09/M06 A2992 RMK A01 T00881064  RH  034%=      5-min Rain = 0
KGU1 170438Z 29026KT 09/M06 A2992 RMK A01 T00891063  RH  034%=      5-min Rain = 0
KGU1 170439Z 29025G30KT 09/M07 A2992 RMK A01 T00891067  RH  033%=      5-min Rain = 0
KGU1 170440Z 30025G30KT 09/M07 A2992 RMK A01 T00891066  RH  033%=      5-min Rain = 0
KGU1 170441Z 29027G35KT 09/M07 A2992 RMK A01 T00891068  RH  033%=      5-min Rain = 0
KGU1 170442Z 29023KT 09/M07 A2992 RMK A01 T00891067  RH  033%=      5-min Rain = 0
KGU1 170443Z 29027KT 09/M07 A2992 RMK A01 T00891067  RH  033%=      5-min Rain = 0
KGU1 170444Z 29021G29KT 09/M07 A2992 RMK A01 T00891067  RH  033%=      5-min Rain = 0
KGU1 170445Z 29020G27KT 09/M07 A2992 RMK A01 T00881065  RH  034%=      5-min Rain = 0
KGU1 170446Z 30016G21KT 09/M07 A2992 RMK A01 T00871067  RH  033%=      5-min Rain = 0
KGU1 170447Z 29022G29KT 09/M07 A2992 RMK A01 T00871069  RH  033%=      5-min Rain = 0
KGU1 170448Z 29022KT 09/M07 A2992 RMK A01 T00871068  RH  033%=      5-min Rain = 0
KGU1 170449Z 30021G27KT 09/M07 A2992 RMK A01 T00871068  RH  033%=      5-min Rain = 0
KGU1 170450Z 29021G26KT 09/M07 A2992 RMK A01 T00871069  RH  033%=      5-min Rain = 0
KGU1 170451Z 29023G28KT 09/M07 A2992 RMK A01 T00871071  RH  032%=      5-min Rain = 0
KGU1 170452Z 30022G28KT 09/M07 A2992 RMK A01 T00871073  RH  032%=      5-min Rain = 0
KGU1 170453Z 29021KT 09/M08 A2992 RMK A01 T00871075  RH  031%=      5-min Rain = 0
KGU1 170454Z 29021G26KT 09/M08 A2992 RMK A01 T00881076  RH  031%=      5-min Rain = 0
KGU1 170455Z 29020KT 09/M08 A2992 RMK A01 T00881079  RH  030%=      5-min Rain = 0
KGU1 170456Z 30020G28KT 09/M08 A2992 RMK A01 T00871076  RH  031%=      5-min Rain = 0
KGU1 170457Z 29019G25KT 09/M08 A2992 RMK A01 T00871077  RH  031%=      5-min Rain = 0
KGU1 170458Z 30024KT 09/M08 A2992 RMK A01 T00871079  RH  030%=      5-min Rain = 0
KGU1 170459Z 29026KT 09/M08 A2992 RMK A01 T00871079  RH  030%=      5-min Rain = 0
KGU1 170500Z 30022G27KT 09/M08 A2992 RMK A01 T00871077  RH  031%=      5-min Rain = 0
KGU1 170501Z 29020G26KT 09/M08 A2991 RMK A01 T00871078  RH  031%=      5-min Rain = 0
KGU1 170502Z 30020G26KT 09/M08 A2991 RMK A01 T00861078  RH  031%=      5-min Rain = 0
KGU1 170503Z 29022G28KT 09/M08 A2991 RMK A01 T00861078  RH  031%=      5-min Rain = 0
KGU1 170504Z 29021G26KT 09/M08 A2991 RMK A01 T00851078  RH  031%=      5-min Rain = 0
KGU1 170505Z 29019KT 09/M08 A2991 RMK A01 T00851077  RH  031%=      5-min Rain = 0
KGU1 170506Z 30024G29KT 08/M08 A2991 RMK A01 T00841078  RH  031%=      5-min Rain = 0
KGU1 170507Z 29024G29KT 09/M08 A2991 RMK A01 T00851080  RH  031%=      5-min Rain = 0
KGU1 170508Z 30025G30KT 09/M08 A2991 RMK A01 T00861080  RH  030%=      5-min Rain = 0
KGU1 170509Z 29023G28KT 09/M08 A2991 RMK A01 T00861079  RH  031%=      5-min Rain = 0
KGU1 170510Z 30024G30KT 09/M08 A2991 RMK A01 T00861079  RH  031%=      5-min Rain = 0
KGU1 170511Z 30026KT 09/M08 A2991 RMK A01 T00861079  RH  031%=      5-min Rain = 0
KGU1 170512Z 29024G29KT 09/M08 A2991 RMK A01 T00861079  RH  031%=      5-min Rain = 0
KGU1 170513Z 30022KT 09/M08 A2991 RMK A01 T00861079  RH  031%=      5-min Rain = 0
KGU1 170514Z 29025KT 09/M08 A2991 RMK A01 T00861079  RH  031%=      5-min Rain = 0
KGU1 170515Z 30021KT 09/M08 A2991 RMK A01 T00851079  RH  031%=      5-min Rain = 0
KGU1 170516Z 30021KT 09/M08 A2991 RMK A01 T00851081  RH  030%=      5-min Rain = 0
KGU1 170517Z 30018G24KT 09/M08 A2991 RMK A01 T00851078  RH  031%=      5-min Rain = 0
KGU1 170518Z 29021G27KT 08/M08 A2991 RMK A01 T00841078  RH  031%=      5-min Rain = 0
KGU1 170519Z 30019KT 08/M08 A2991 RMK A01 T00841077  RH  031%=      5-min Rain = 0
KGU1 170520Z 30021G29KT 08/M08 A2991 RMK A01 T00841078  RH  031%=      5-min Rain = 0
KGU1 170521Z 30023G28KT 08/M08 A2991 RMK A01 T00841078  RH  031%=      5-min Rain = 0
KGU1 170522Z 29025KT 08/M08 A2991 RMK A01 T00841078  RH  031%=      5-min Rain = 0
KGU1 170523Z 30025G35KT 09/M08 A2991 RMK A01 T00851077  RH  031%=      5-min Rain = 0
KGU1 170524Z 29027G34KT 09/M08 A2991 RMK A01 T00851078  RH  031%=      5-min Rain = 0
KGU1 170525Z 29024G31KT 09/M08 A299 RMK A01 T00851077  RH  031%=      5-min Rain = 0
KGU1 170526Z 30022KT 09/M08 A299 RMK A01 T00851076  RH  032%=      5-min Rain = 0
KGU1 170527Z 30023G28KT 08/M08 A299 RMK A01 T00841076  RH  032%=      5-min Rain = 0
KGU1 170528Z 30022KT 08/M08 A299 RMK A01 T00841075  RH  032%=      5-min Rain = 0
KGU1 170529Z 30021G26KT 08/M07 A299 RMK A01 T00831074  RH  032%=      5-min Rain = 0
KGU1 170530Z 30022G29KT 08/M08 A299 RMK A01 T00831075  RH  032%=      5-min Rain = 0
KGU1 170531Z 30023G31KT 08/M08 A299 RMK A01 T00831075  RH  032%=      5-min Rain = 0
KGU1 170532Z 30022KT 08/M07 A299 RMK A01 T00831074  RH  032%=      5-min Rain = 0
KGU1 170533Z 30021G29KT 08/M07 A299 RMK A01 T00831074  RH  033%=      5-min Rain = 0
KGU1 170534Z 31024G29KT 08/M07 A299 RMK A01 T00821073  RH  033%=      5-min Rain = 0
KGU1 170535Z 30020KT 08/M07 A299 RMK A01 T00821073  RH  033%=      5-min Rain = 0
KGU1 170536Z 31020G25KT 08/M07 A299 RMK A01 T00821073  RH  033%=      5-min Rain = 0
KGU1 170537Z 30028G33KT 08/M07 A299 RMK A01 T00821073  RH  033%=      5-min Rain = 0
KGU1 170538Z 30025KT 08/M07 A299 RMK A01 T00831073  RH  033%=      5-min Rain = 0
KGU1 170539Z 31024G31KT 08/M07 A299 RMK A01 T00831072  RH  033%=      5-min Rain = 0
KGU1 170540Z 31027G32KT 08/M07 A299 RMK A01 T00831073  RH  033%=      5-min Rain = 0
KGU1 170541Z 30027G34KT 08/M07 A299 RMK A01 T00831073  RH  033%=      5-min Rain = 0
KGU1 170542Z 30023G29KT 08/M07 A299 RMK A01 T00831073  RH  033%=      5-min Rain = 0
KGU1 170543Z 30022G29KT 08/M07 A299 RMK A01 T00821073  RH  033%=      5-min Rain = 0
KGU1 170544Z 31017G22KT 08/M07 A299 RMK A01 T00821072  RH  033%=      5-min Rain = 0
KGU1 170545Z 31021G28KT 08/M07 A299 RMK A01 T00821072  RH  033%=      5-min Rain = 0
KGU1 170546Z 31023G30KT 08/M07 A299 RMK A01 T00811073  RH  033%=      5-min Rain = 0
KGU1 170547Z 30023KT 08/M07 A299 RMK A01 T00821073  RH  033%=      5-min Rain = 0
KGU1 170548Z 31020G27KT 08/M07 A299 RMK A01 T00821072  RH  033%=      5-min Rain = 0
KGU1 170549Z 31021G28KT 08/M07 A299 RMK A01 T00811072  RH  033%=      5-min Rain = 0
KGU1 170550Z 30026G33KT 08/M07 A299 RMK A01 T00821073  RH  033%=      5-min Rain = 0
KGU1 170551Z 31021G27KT 08/M07 A299 RMK A01 T00831072  RH  033%=      5-min Rain = 0
KGU1 170552Z 30022G33KT 08/M07 A299 RMK A01 T00821072  RH  033%=      5-min Rain = 0
KGU1 170553Z 31024G30KT 08/M07 A299 RMK A01 T00821073  RH  033%=      5-min Rain = 0
KGU1 170554Z 31024KT 08/M07 A299 RMK A01 T00831073  RH  033%=      5-min Rain = 0
KGU1 170555Z 31024G31KT 08/M07 A299 RMK A01 T00831073  RH  033%=      5-min Rain = 0
KGU1 170556Z 30020KT 08/M07 A299 RMK A01 T00821072  RH  033%=      5-min Rain = 0
KGU1 170557Z 30019G26KT 08/M07 A299 RMK A01 T00811072  RH  033%=      5-min Rain = 0
KGU1 170558Z 30022G28KT 08/M07 A299 RMK A01 T00811072  RH  033%=      5-min Rain = 0
KGU1 170559Z 30023KT 08/M07 A299 RMK A01 T00821072  RH  033%=      5-min Rain = 0

Page generated in 0.1025 seconds.